Observation data for JA Ranch on 12/09/2018      Previous  Date  Next       Current Mesonet Observations  Soil Data  Daily Summary Page  Observations in Plain Language
KPD3 090600Z 30003KT M07/M09 A3033 RMK A01 T10721087  RH  089%=      5-min Rain = 0
KPD3 090601Z 30003KT M07/M09 A3032 RMK A01 T10721087  RH  089%=      5-min Rain = 0
KPD3 090602Z 30004KT M07/M09 A3032 RMK A01 T10721087  RH  089%=      5-min Rain = 0
KPD3 090603Z 30004KT M07/M09 A3032 RMK A01 T10721087  RH  089%=      5-min Rain = 0
KPD3 090604Z 30004KT M07/M09 A3032 RMK A01 T10731087  RH  089%=      5-min Rain = 0
KPD3 090605Z 30005KT M07/M09 A3032 RMK A01 T10731088  RH  089%=      5-min Rain = 0
KPD3 090606Z 29005KT M07/M09 A3033 RMK A01 T10731088  RH  089%=      5-min Rain = 0
KPD3 090607Z 29005KT M07/M09 A3033 RMK A01 T10731088  RH  089%=      5-min Rain = 0
KPD3 090608Z 29005KT M07/M09 A3033 RMK A01 T10731088  RH  089%=      5-min Rain = 0
KPD3 090609Z 29004KT M07/M09 A3033 RMK A01 T10741089  RH  089%=      5-min Rain = 0
KPD3 090610Z 29004KT M07/M09 A3033 RMK A01 T10741089  RH  089%=      5-min Rain = 0
KPD3 090611Z 29005KT M07/M09 A3032 RMK A01 T10741089  RH  089%=      5-min Rain = 0
KPD3 090612Z 29004KT M07/M09 A3032 RMK A01 T10741089  RH  089%=      5-min Rain = 0
KPD3 090613Z 29005KT M07/M09 A3032 RMK A01 T10741088  RH  089%=      5-min Rain = 0
KPD3 090614Z 29005KT M07/M09 A3033 RMK A01 T10741088  RH  089%=      5-min Rain = 0
KPD3 090615Z 29005KT M07/M09 A3033 RMK A01 T10741089  RH  089%=      5-min Rain = 0
KPD3 090616Z 29005KT M07/M09 A3033 RMK A01 T10741088  RH  090%=      5-min Rain = 0
KPD3 090617Z 29005KT M07/M09 A3033 RMK A01 T10731088  RH  090%=      5-min Rain = 0
KPD3 090618Z 29005KT M07/M09 A3033 RMK A01 T10731088  RH  090%=      5-min Rain = 0
KPD3 090619Z 29005KT M07/M09 A3033 RMK A01 T10731088  RH  090%=      5-min Rain = 0
KPD3 090620Z 29005KT M07/M09 A3033 RMK A01 T10731088  RH  089%=      5-min Rain = 0
KPD3 090621Z 29005KT M07/M09 A3033 RMK A01 T10731088  RH  089%=      5-min Rain = 0
KPD3 090622Z 29005KT M07/M09 A3033 RMK A01 T10731088  RH  089%=      5-min Rain = 0
KPD3 090623Z 30005KT M07/M09 A3033 RMK A01 T10731088  RH  089%=      5-min Rain = 0
KPD3 090624Z 30005KT M07/M09 A3033 RMK A01 T10711085  RH  089%=      5-min Rain = 0
KPD3 090625Z 30005KT M07/M08 A3033 RMK A01 T10691084  RH  089%=      5-min Rain = 0
KPD3 090626Z 30005KT M07/M08 A3033 RMK A01 T10671083  RH  088%=      5-min Rain = 0
KPD3 090627Z 30005KT M07/M08 A3033 RMK A01 T10651083  RH  087%=      5-min Rain = 0
KPD3 090628Z 30005KT M06/M08 A3033 RMK A01 T10641084  RH  086%=      5-min Rain = 0
KPD3 090629Z 30006KT M06/M09 A3033 RMK A01 T10641085  RH  086%=      5-min Rain = 0
KPD3 090630Z 30006KT M06/M09 A3033 RMK A01 T10641085  RH  085%=      5-min Rain = 0
KPD3 090631Z 30006KT M06/M09 A3033 RMK A01 T10631085  RH  085%=      5-min Rain = 0
KPD3 090632Z 31006KT M06/M09 A3033 RMK A01 T10631085  RH  085%=      5-min Rain = 0
KPD3 090633Z 31006KT M06/M09 A3033 RMK A01 T10631085  RH  085%=      5-min Rain = 0
KPD3 090634Z 31006KT M06/M09 A3033 RMK A01 T10641085  RH  085%=      5-min Rain = 0
KPD3 090635Z 31007KT M06/M09 A3033 RMK A01 T10641085  RH  085%=      5-min Rain = 0
KPD3 090636Z 31007KT M06/M08 A3033 RMK A01 T10621084  RH  085%=      5-min Rain = 0
KPD3 090637Z 31007KT M06/M09 A3033 RMK A01 T10621085  RH  084%=      5-min Rain = 0
KPD3 090638Z 31007KT M06/M09 A3033 RMK A01 T10621085  RH  084%=      5-min Rain = 0
KPD3 090639Z 31007KT M06/M09 A3033 RMK A01 T10611085  RH  084%=      5-min Rain = 0
KPD3 090640Z 31007KT M06/M08 A3033 RMK A01 T10611084  RH  084%=      5-min Rain = 0
KPD3 090641Z 31007KT M06/M08 A3033 RMK A01 T10601083  RH  084%=      5-min Rain = 0
KPD3 090642Z 31007KT M06/M08 A3033 RMK A01 T10601083  RH  083%=      5-min Rain = 0
KPD3 090643Z 31006KT M06/M09 A3033 RMK A01 T10611085  RH  083%=      5-min Rain = 0
KPD3 090644Z 30006KT M07/M09 A3033 RMK A01 T10661094  RH  081%=      5-min Rain = 0
KPD3 090645Z 30006KT M07/M10 A3033 RMK A01 T10701096  RH  081%=      5-min Rain = 0
KPD3 090646Z 30006KT M07/M09 A3033 RMK A01 T10701092  RH  084%=      5-min Rain = 0
KPD3 090647Z 30006KT M07/M09 A3033 RMK A01 T10681088  RH  086%=      5-min Rain = 0
KPD3 090648Z 30006KT M07/M09 A3033 RMK A01 T10661085  RH  086%=      5-min Rain = 0
KPD3 090649Z 30006KT M06/M09 A3033 RMK A01 T10641085  RH  085%=      5-min Rain = 0
KPD3 090650Z 31005KT M07/M09 A3033 RMK A01 T10661089  RH  084%=      5-min Rain = 0
KPD3 090651Z 30005KT M07/M09 A3033 RMK A01 T10691093  RH  083%=      5-min Rain = 0
KPD3 090652Z 30005KT M07/M09 A3033 RMK A01 T10711094  RH  084%=      5-min Rain = 0
KPD3 090653Z 30005KT M07/M09 A3033 RMK A01 T10721094  RH  085%=      5-min Rain = 0
KPD3 090654Z 30005KT M07/M09 A3033 RMK A01 T10731093  RH  086%=      5-min Rain = 0
KPD3 090655Z 31005KT M07/M09 A3033 RMK A01 T10731092  RH  087%=      5-min Rain = 0
KPD3 090656Z 31005KT M07/M09 A3033 RMK A01 T10741092  RH  087%=      5-min Rain = 0
KPD3 090657Z 31005KT M07/M09 A3033 RMK A01 T10741092  RH  087%=      5-min Rain = 0
KPD3 090658Z 30005KT M07/M09 A3033 RMK A01 T10741092  RH  087%=      5-min Rain = 0
KPD3 090659Z 30006KT M07/M09 A3033 RMK A01 T10741093  RH  087%=      5-min Rain = 0
KPD3 090700Z 30006KT M08/M09 A3033 RMK A01 T10751094  RH  087%=      5-min Rain = 0
KPD3 090701Z 29006KT M08/M09 A3033 RMK A01 T10751094  RH  087%=      5-min Rain = 0
KPD3 090702Z 29005KT M08/M09 A3033 RMK A01 T10761094  RH  087%=      5-min Rain = 0
KPD3 090703Z 29005KT M08/M10 A3033 RMK A01 T10761095  RH  087%=      5-min Rain = 0
KPD3 090704Z 30005KT M08/M10 A3033 RMK A01 T10771095  RH  087%=      5-min Rain = 0
KPD3 090705Z 30005KT M08/M10 A3032 RMK A01 T10771095  RH  087%=      5-min Rain = 0
KPD3 090706Z 30005KT M08/M10 A3032 RMK A01 T10771095  RH  087%=      5-min Rain = 0
KPD3 090707Z 30005KT M08/M10 A3032 RMK A01 T10771095  RH  087%=      5-min Rain = 0
KPD3 090708Z 30005KT M08/M10 A3032 RMK A01 T10781096  RH  087%=      5-min Rain = 0
KPD3 090709Z 29005KT M08/M10 A3032 RMK A01 T10781096  RH  087%=      5-min Rain = 0
KPD3 090710Z 29005KT M08/M10 A3032 RMK A01 T10781097  RH  087%=      5-min Rain = 0
KPD3 090711Z 29005KT M08/M10 A3032 RMK A01 T10791097  RH  087%=      5-min Rain = 0
KPD3 090712Z 29005KT M08/M10 A3032 RMK A01 T10791096  RH  087%=      5-min Rain = 0
KPD3 090713Z 29005KT M08/M10 A3032 RMK A01 T10781095  RH  088%=      5-min Rain = 0
KPD3 090714Z 29005KT M08/M09 A3032 RMK A01 T10781094  RH  088%=      5-min Rain = 0
KPD3 090715Z 29005KT M08/M09 A3033 RMK A01 T10771093  RH  088%=      5-min Rain = 0
KPD3 090716Z 29005KT M08/M09 A3032 RMK A01 T10771093  RH  088%=      5-min Rain = 0
KPD3 090717Z 29005KT M08/M09 A3032 RMK A01 T10761092  RH  088%=      5-min Rain = 0
KPD3 090718Z 29005KT M08/M09 A3032 RMK A01 T10761093  RH  088%=      5-min Rain = 0
KPD3 090719Z 29005KT M08/M09 A3032 RMK A01 T10761092  RH  088%=      5-min Rain = 0
KPD3 090720Z 29005KT M08/M09 A3032 RMK A01 T10761092  RH  088%=      5-min Rain = 0
KPD3 090721Z 29005KT M08/M09 A3032 RMK A01 T10761093  RH  088%=      5-min Rain = 0
KPD3 090722Z 28005KT M08/M09 A3032 RMK A01 T10751092  RH  088%=      5-min Rain = 0
KPD3 090723Z 28005KT M08/M09 A3032 RMK A01 T10751092  RH  088%=      5-min Rain = 0
KPD3 090724Z 28005KT M08/M09 A3032 RMK A01 T10751093  RH  087%=      5-min Rain = 0
KPD3 090725Z 28005KT M08/M09 A3032 RMK A01 T10751093  RH  087%=      5-min Rain = 0
KPD3 090726Z 28006KT M08/M09 A3032 RMK A01 T10751092  RH  087%=      5-min Rain = 0
KPD3 090727Z 28006KT M07/M09 A3032 RMK A01 T10741092  RH  087%=      5-min Rain = 0
KPD3 090728Z 28006KT M07/M09 A3032 RMK A01 T10741092  RH  087%=      5-min Rain = 0
KPD3 090729Z 29006KT M07/M09 A3032 RMK A01 T10741092  RH  087%=      5-min Rain = 0
KPD3 090730Z 29006KT M07/M09 A3032 RMK A01 T10741092  RH  087%=      5-min Rain = 0
KPD3 090731Z 29005KT M07/M09 A3032 RMK A01 T10731092  RH  086%=      5-min Rain = 0
KPD3 090732Z 29005KT M07/M09 A3032 RMK A01 T10731093  RH  086%=      5-min Rain = 0
KPD3 090733Z 29005KT M07/M09 A3032 RMK A01 T10741093  RH  086%=      5-min Rain = 0
KPD3 090734Z 29005KT M07/M09 A3032 RMK A01 T10741094  RH  086%=      5-min Rain = 0
KPD3 090735Z 29005KT M07/M09 A3032 RMK A01 T10741094  RH  086%=      5-min Rain = 0
KPD3 090736Z 29005KT M07/M09 A3032 RMK A01 T10741094  RH  086%=      5-min Rain = 0
KPD3 090737Z 29006KT M07/M10 A3032 RMK A01 T10741095  RH  085%=      5-min Rain = 0
KPD3 090738Z 29006KT M08/M10 A3032 RMK A01 T10751096  RH  085%=      5-min Rain = 0
KPD3 090739Z 29006KT M08/M10 A3032 RMK A01 T10751096  RH  085%=      5-min Rain = 0
KPD3 090740Z 29005KT M08/M10 A3032 RMK A01 T10751096  RH  085%=      5-min Rain = 0
KPD3 090741Z 29005KT M08/M10 A3032 RMK A01 T10751097  RH  084%=      5-min Rain = 0
KPD3 090742Z 29005KT M08/M10 A3032 RMK A01 T10751097  RH  084%=      5-min Rain = 0
KPD3 090743Z 29005KT M08/M10 A3032 RMK A01 T10751097  RH  084%=      5-min Rain = 0
KPD3 090744Z 29005KT M08/M10 A3032 RMK A01 T10761098  RH  084%=      5-min Rain = 0
KPD3 090745Z 29006KT M08/M10 A3032 RMK A01 T10761098  RH  084%=      5-min Rain = 0
KPD3 090746Z 29006KT M08/M10 A3032 RMK A01 T10761098  RH  084%=      5-min Rain = 0
KPD3 090747Z 29006KT M08/M10 A3032 RMK A01 T10751097  RH  084%=      5-min Rain = 0
KPD3 090748Z 29005KT M07/M10 A3032 RMK A01 T10741096  RH  084%=      5-min Rain = 0
KPD3 090749Z 28005KT M07/M10 A3032 RMK A01 T10731097  RH  083%=      5-min Rain = 0
KPD3 090750Z 28004KT M07/M10 A3032 RMK A01 T10731097  RH  083%=      5-min Rain = 0
KPD3 090751Z 28004KT M07/M10 A3032 RMK A01 T10721097  RH  083%=      5-min Rain = 0
KPD3 090752Z 28004KT M07/M10 A3032 RMK A01 T10721097  RH  083%=      5-min Rain = 0
KPD3 090753Z 28004KT M07/M10 A3032 RMK A01 T10711095  RH  083%=      5-min Rain = 0
KPD3 090754Z 28003KT M07/M09 A3032 RMK A01 T10691093  RH  083%=      5-min Rain = 0
KPD3 090755Z 29004KT M07/M09 A3032 RMK A01 T10691092  RH  084%=      5-min Rain = 0
KPD3 090756Z 29004KT M07/M09 A3032 RMK A01 T10701093  RH  084%=      5-min Rain = 0
KPD3 090757Z 29004KT M07/M10 A3032 RMK A01 T10721095  RH  084%=      5-min Rain = 0
KPD3 090758Z 29004KT M07/M10 A3032 RMK A01 T10741097  RH  084%=      5-min Rain = 0
KPD3 090759Z 29004KT M08/M10 A3032 RMK A01 T10751098  RH  084%=      5-min Rain = 0
KPD3 090800Z 29004KT M08/M10 A3032 RMK A01 T10771099  RH  084%=      5-min Rain = 0
KPD3 090801Z 29004KT M08/M10 A3032 RMK A01 T10771099  RH  085%=      5-min Rain = 0
KPD3 090802Z 30004KT M08/M10 A3031 RMK A01 T10781099  RH  085%=      5-min Rain = 0
KPD3 090803Z 30004KT M08/M10 A3031 RMK A01 T10781099  RH  085%=      5-min Rain = 0
KPD3 090804Z 30004KT M08/M10 A3031 RMK A01 T10791099  RH  085%=      5-min Rain = 0
KPD3 090805Z 30004KT M08/M10 A3031 RMK A01 T10801100  RH  086%=      5-min Rain = 0
KPD3 090806Z 30004KT M08/M10 A3031 RMK A01 T10791099  RH  086%=      5-min Rain = 0
KPD3 090807Z 30004KT M08/M10 A3032 RMK A01 T10791099  RH  086%=      5-min Rain = 0
KPD3 090808Z 30005KT M08/M10 A3032 RMK A01 T10791099  RH  086%=      5-min Rain = 0
KPD3 090809Z 30005KT M08/M10 A3032 RMK A01 T10791099  RH  086%=      5-min Rain = 0
KPD3 090810Z 30004KT M08/M10 A3032 RMK A01 T10791099  RH  086%=      5-min Rain = 0
KPD3 090811Z 30005KT M08/M10 A3032 RMK A01 T10791099  RH  086%=      5-min Rain = 0
KPD3 090812Z 30004KT M08/M10 A3032 RMK A01 T10791099  RH  086%=      5-min Rain = 0
KPD3 090813Z 30004KT M08/M10 A3032 RMK A01 T10791100  RH  085%=      5-min Rain = 0
KPD3 090814Z 30004KT M08/M10 A3032 RMK A01 T10791100  RH  085%=      5-min Rain = 0
KPD3 090815Z 30004KT M08/M10 A3032 RMK A01 T10801100  RH  085%=      5-min Rain = 0
KPD3 090816Z 30004KT M08/M10 A3032 RMK A01 T10801101  RH  085%=      5-min Rain = 0
KPD3 090817Z 30004KT M08/M10 A3032 RMK A01 T10801101  RH  085%=      5-min Rain = 0
KPD3 090818Z 30004KT M08/M10 A3032 RMK A01 T10801101  RH  085%=      5-min Rain = 0
KPD3 090819Z 30004KT M08/M10 A3032 RMK A01 T10801101  RH  085%=      5-min Rain = 0
KPD3 090820Z 30004KT M08/M10 A3032 RMK A01 T10791101  RH  084%=      5-min Rain = 0
KPD3 090821Z 29004KT M08/M10 A3032 RMK A01 T10801102  RH  084%=      5-min Rain = 0
KPD3 090822Z 30004KT M08/M10 A3032 RMK A01 T10791102  RH  084%=      5-min Rain = 0
KPD3 090823Z 29004KT M08/M10 A3032 RMK A01 T10791102  RH  084%=      5-min Rain = 0
KPD3 090824Z 29004KT M08/M10 A3032 RMK A01 T10791102  RH  084%=      5-min Rain = 0
KPD3 090825Z 29004KT M08/M10 A3032 RMK A01 T10781101  RH  084%=      5-min Rain = 0
KPD3 090826Z 29004KT M08/M10 A3032 RMK A01 T10761099  RH  084%=      5-min Rain = 0
KPD3 090827Z 30004KT M07/M10 A3032 RMK A01 T10721097  RH  083%=      5-min Rain = 0
KPD3 090828Z 30004KT M07/M10 A3032 RMK A01 T10701097  RH  081%=      5-min Rain = 0
KPD3 090829Z 29004KT M07/M10 A3032 RMK A01 T10681098  RH  079%=      5-min Rain = 0
KPD3 090830Z 29004KT M07/M10 A3032 RMK A01 T10681100  RH  078%=      5-min Rain = 0
KPD3 090831Z 29004KT M07/M10 A3032 RMK A01 T10691101  RH  078%=      5-min Rain = 0
KPD3 090832Z 29004KT M07/M10 A3032 RMK A01 T10691101  RH  078%=      5-min Rain = 0
KPD3 090833Z 29004KT M07/M10 A3032 RMK A01 T10691101  RH  078%=      5-min Rain = 0
KPD3 090834Z 28004KT M07/M10 A3032 RMK A01 T10711103  RH  078%=      5-min Rain = 0
KPD3 090835Z 28003KT M07/M10 A3032 RMK A01 T10731104  RH  079%=      5-min Rain = 0
KPD3 090836Z 28004KT M08/M11 A3033 RMK A01 T10761105  RH  080%=      5-min Rain = 0
KPD3 090837Z 28004KT M08/M11 A3033 RMK A01 T10781106  RH  080%=      5-min Rain = 0
KPD3 090838Z 28004KT M08/M11 A3033 RMK A01 T10791106  RH  081%=      5-min Rain = 0
KPD3 090839Z 28004KT M08/M11 A3033 RMK A01 T10791107  RH  081%=      5-min Rain = 0
KPD3 090840Z 28004KT M08/M11 A3033 RMK A01 T10801107  RH  081%=      5-min Rain = 0
KPD3 090841Z 28004KT M08/M11 A3033 RMK A01 T10801106  RH  081%=      5-min Rain = 0
KPD3 090842Z 29004KT M08/M11 A3033 RMK A01 T10801105  RH  082%=      5-min Rain = 0
KPD3 090843Z 29004KT M08/M11 A3033 RMK A01 T10811105  RH  083%=      5-min Rain = 0
KPD3 090844Z 29004KT M08/M10 A3033 RMK A01 T10811104  RH  083%=      5-min Rain = 0
KPD3 090845Z 29004KT M08/M10 A3033 RMK A01 T10811104  RH  083%=      5-min Rain = 0
KPD3 090846Z 29004KT M08/M10 A3033 RMK A01 T10811104  RH  083%=      5-min Rain = 0
KPD3 090847Z 29004KT M08/M10 A3033 RMK A01 T10821104  RH  084%=      5-min Rain = 0
KPD3 090848Z 29004KT M08/M10 A3033 RMK A01 T10821104  RH  084%=      5-min Rain = 0
KPD3 090849Z 29004KT M08/M10 A3033 RMK A01 T10821104  RH  085%=      5-min Rain = 0
KPD3 090850Z 30004KT M08/M10 A3033 RMK A01 T10831103  RH  085%=      5-min Rain = 0
KPD3 090851Z 30004KT M08/M10 A3033 RMK A01 T10841104  RH  085%=      5-min Rain = 0
KPD3 090852Z 30004KT M08/M10 A3033 RMK A01 T10841104  RH  086%=      5-min Rain = 0
KPD3 090853Z 30004KT M08/M10 A3033 RMK A01 T10841104  RH  086%=      5-min Rain = 0
KPD3 090854Z 30004KT M08/M10 A3033 RMK A01 T10841103  RH  086%=      5-min Rain = 0
KPD3 090855Z 30004KT M09/M10 A3033 RMK A01 T10851104  RH  086%=      5-min Rain = 0
KPD3 090856Z 29005KT M09/M10 A3033 RMK A01 T10851104  RH  086%=      5-min Rain = 0
KPD3 090857Z 29005KT M08/M10 A3033 RMK A01 T10841103  RH  086%=      5-min Rain = 0
KPD3 090858Z 29005KT M08/M10 A3032 RMK A01 T10841103  RH  086%=      5-min Rain = 0
KPD3 090859Z 29005KT M08/M10 A3032 RMK A01 T10841103  RH  086%=      5-min Rain = 0
KPD3 090900Z 29005KT M08/M10 A3032 RMK A01 T10841103  RH  086%=      5-min Rain = 0
KPD3 090901Z 29006KT M08/M10 A3032 RMK A01 T10831103  RH  086%=      5-min Rain = 0
KPD3 090902Z 29006KT M08/M10 A3033 RMK A01 T10831103  RH  086%=      5-min Rain = 0
KPD3 090903Z 29005KT M08/M10 A3033 RMK A01 T10831103  RH  086%=      5-min Rain = 0
KPD3 090904Z 29005KT M08/M11 A3033 RMK A01 T10841105  RH  085%=      5-min Rain = 0
KPD3 090905Z 29005KT M09/M11 A3033 RMK A01 T10851107  RH  084%=      5-min Rain = 0
KPD3 090906Z 29004KT M09/M11 A3033 RMK A01 T10851108  RH  084%=      5-min Rain = 0
KPD3 090907Z 28004KT M09/M11 A3033 RMK A01 T10861109  RH  084%=      5-min Rain = 0
KPD3 090908Z 29005KT M09/M11 A3032 RMK A01 T10861109  RH  083%=      5-min Rain = 0
KPD3 090909Z 28005KT M09/M11 A3032 RMK A01 T10861110  RH  083%=      5-min Rain = 0
KPD3 090910Z 28005KT M09/M11 A3032 RMK A01 T10851110  RH  082%=      5-min Rain = 0
KPD3 090911Z 28005KT M08/M11 A3032 RMK A01 T10841110  RH  082%=      5-min Rain = 0
KPD3 090912Z 28005KT M08/M11 A3032 RMK A01 T10841110  RH  082%=      5-min Rain = 0
KPD3 090913Z 28005KT M08/M11 A3032 RMK A01 T10831109  RH  081%=      5-min Rain = 0
KPD3 090914Z 28005KT M08/M11 A3032 RMK A01 T10821109  RH  081%=      5-min Rain = 0
KPD3 090915Z 29004KT M08/M11 A3032 RMK A01 T10801109  RH  080%=      5-min Rain = 0
KPD3 090916Z 29004KT M08/M11 A3033 RMK A01 T10781108  RH  079%=      5-min Rain = 0
KPD3 090917Z 29004KT M08/M11 A3033 RMK A01 T10771108  RH  078%=      5-min Rain = 0
KPD3 090918Z 29004KT M08/M11 A3033 RMK A01 T10761108  RH  078%=      5-min Rain = 0
KPD3 090919Z 29004KT M08/M11 A3033 RMK A01 T10761109  RH  077%=      5-min Rain = 0
KPD3 090920Z 29004KT M08/M11 A3033 RMK A01 T10791111  RH  078%=      5-min Rain = 0
KPD3 090921Z 29004KT M08/M11 A3033 RMK A01 T10801110  RH  079%=      5-min Rain = 0
KPD3 090922Z 29004KT M08/M11 A3033 RMK A01 T10821110  RH  080%=      5-min Rain = 0
KPD3 090923Z 30004KT M08/M11 A3032 RMK A01 T10811109  RH  080%=      5-min Rain = 0
KPD3 090924Z 30004KT M08/M11 A3032 RMK A01 T10791108  RH  080%=      5-min Rain = 0
KPD3 090925Z 30005KT M08/M11 A3032 RMK A01 T10761107  RH  079%=      5-min Rain = 0
KPD3 090926Z 30005KT M07/M11 A3032 RMK A01 T10731105  RH  078%=      5-min Rain = 0
KPD3 090927Z 30005KT M07/M10 A3032 RMK A01 T10701104  RH  077%=      5-min Rain = 0
KPD3 090928Z 30005KT M07/M11 A3032 RMK A01 T10701105  RH  076%=      5-min Rain = 0
KPD3 090929Z 31005KT M07/M11 A3032 RMK A01 T10701105  RH  076%=      5-min Rain = 0
KPD3 090930Z 31005KT M07/M11 A3032 RMK A01 T10711105  RH  077%=      5-min Rain = 0
KPD3 090931Z 31005KT M07/M11 A3032 RMK A01 T10721105  RH  077%=      5-min Rain = 0
KPD3 090932Z 31006KT M07/M10 A3032 RMK A01 T10721104  RH  078%=      5-min Rain = 0
KPD3 090933Z 31005KT M07/M10 A3033 RMK A01 T10721103  RH  078%=      5-min Rain = 0
KPD3 090934Z 31005KT M07/M10 A3033 RMK A01 T10721104  RH  078%=      5-min Rain = 0
KPD3 090935Z 32004KT M07/M10 A3033 RMK A01 T10721104  RH  078%=      5-min Rain = 0
KPD3 090936Z 32003KT M08/M11 A3033 RMK A01 T10751106  RH  078%=      5-min Rain = 0
KPD3 090937Z 33002KT M08/M11 A3033 RMK A01 T10781108  RH  079%=      5-min Rain = 0
KPD3 090938Z 33003KT M08/M11 A3033 RMK A01 T10781107  RH  080%=      5-min Rain = 0
KPD3 090939Z 33003KT M08/M10 A3033 RMK A01 T10781104  RH  082%=      5-min Rain = 0
KPD3 090940Z 32003KT M08/M10 A3033 RMK A01 T10771102  RH  082%=      5-min Rain = 0
KPD3 090941Z 32003KT M08/M10 A3033 RMK A01 T10761100  RH  083%=      5-min Rain = 0
KPD3 090942Z 34002KT M08/M10 A3033 RMK A01 T10751100  RH  083%=      5-min Rain = 0
KPD3 090943Z 34002KT M08/M10 A3033 RMK A01 T10751102  RH  081%=      5-min Rain = 0
KPD3 090944Z 33002KT M07/M10 A3033 RMK A01 T10741102  RH  081%=      5-min Rain = 0
KPD3 090945Z 33003KT M08/M10 A3033 RMK A01 T10751102  RH  081%=      5-min Rain = 0
KPD3 090946Z 34002KT M07/M10 A3033 RMK A01 T10741101  RH  081%=      5-min Rain = 0
KPD3 090947Z 33002KT M07/M10 A3033 RMK A01 T10741102  RH  080%=      5-min Rain = 0
KPD3 090948Z 34003KT M07/M10 A3033 RMK A01 T10741102  RH  080%=      5-min Rain = 0
KPD3 090949Z 34003KT M07/M10 A3033 RMK A01 T10741102  RH  080%=      5-min Rain = 0
KPD3 090950Z 33004KT M07/M10 A3033 RMK A01 T10741102  RH  081%=      5-min Rain = 0
KPD3 090951Z 32004KT M07/M10 A3033 RMK A01 T10731100  RH  081%=      5-min Rain = 0
KPD3 090952Z 33004KT M07/M10 A3033 RMK A01 T10701095  RH  082%=      5-min Rain = 0
KPD3 090953Z 33004KT M07/M09 A3033 RMK A01 T10661092  RH  082%=      5-min Rain = 0
KPD3 090954Z 33005KT M06/M09 A3033 RMK A01 T10631092  RH  080%=      5-min Rain = 0
KPD3 090955Z 33005KT M06/M09 A3033 RMK A01 T10621093  RH  079%=      5-min Rain = 0
KPD3 090956Z 33006KT M06/M09 A3033 RMK A01 T10621094  RH  078%=      5-min Rain = 0
KPD3 090957Z 33007KT M06/M09 A3033 RMK A01 T10621094  RH  078%=      5-min Rain = 0
KPD3 090958Z 33007KT M06/M10 A3033 RMK A01 T10631095  RH  078%=      5-min Rain = 0
KPD3 090959Z 33007KT M06/M09 A3033 RMK A01 T10631094  RH  079%=      5-min Rain = 0
KPD3 091000Z 32008KT M06/M09 A3033 RMK A01 T10631093  RH  079%=      5-min Rain = 0
KPD3 091001Z 33007KT M06/M09 A3033 RMK A01 T10621093  RH  079%=      5-min Rain = 0
KPD3 091002Z 32007KT M06/M09 A3033 RMK A01 T10621093  RH  079%=      5-min Rain = 0
KPD3 091003Z 32007KT M06/M09 A3032 RMK A01 T10631094  RH  079%=      5-min Rain = 0
KPD3 091004Z 33007KT M06/M09 A3032 RMK A01 T10631094  RH  078%=      5-min Rain = 0
KPD3 091005Z 33007KT M06/M09 A3032 RMK A01 T10621094  RH  078%=      5-min Rain = 0
KPD3 091006Z 32007KT M06/M09 A3032 RMK A01 T10621094  RH  078%=      5-min Rain = 0
KPD3 091007Z 32007KT M06/M09 A3032 RMK A01 T10631094  RH  078%=      5-min Rain = 0
KPD3 091008Z 32007KT M06/M09 A3032 RMK A01 T10631094  RH  078%=      5-min Rain = 0
KPD3 091009Z 32007KT M06/M09 A3032 RMK A01 T10631094  RH  079%=      5-min Rain = 0
KPD3 091010Z 31007KT M06/M10 A3032 RMK A01 T10641095  RH  079%=      5-min Rain = 0
KPD3 091011Z 32007KT M06/M10 A3032 RMK A01 T10641095  RH  079%=      5-min Rain = 0
KPD3 091012Z 31007KT M06/M10 A3032 RMK A01 T10641095  RH  079%=      5-min Rain = 0
KPD3 091013Z 31007KT M07/M10 A3032 RMK A01 T10651095  RH  079%=      5-min Rain = 0
KPD3 091014Z 31007KT M07/M10 A3032 RMK A01 T10661095  RH  080%=      5-min Rain = 0
KPD3 091015Z 31007KT M07/M10 A3032 RMK A01 T10671096  RH  080%=      5-min Rain = 0
KPD3 091016Z 31007KT M07/M10 A3032 RMK A01 T10681096  RH  080%=      5-min Rain = 0
KPD3 091017Z 31007KT M07/M10 A3032 RMK A01 T10681096  RH  081%=      5-min Rain = 0
KPD3 091018Z 31007KT M07/M10 A3032 RMK A01 T10681095  RH  081%=      5-min Rain = 0
KPD3 091019Z 31007KT M07/M10 A3032 RMK A01 T10681095  RH  082%=      5-min Rain = 0
KPD3 091020Z 31007KT M07/M09 A3032 RMK A01 T10681094  RH  082%=      5-min Rain = 0
KPD3 091021Z 31008KT M07/M09 A3032 RMK A01 T10671093  RH  082%=      5-min Rain = 0
KPD3 091022Z 31007KT M07/M09 A3032 RMK A01 T10671093  RH  082%=      5-min Rain = 0
KPD3 091023Z 31007KT M07/M09 A3032 RMK A01 T10661093  RH  081%=      5-min Rain = 0
KPD3 091024Z 31007KT M07/M09 A3032 RMK A01 T10661093  RH  081%=      5-min Rain = 0
KPD3 091025Z 31007KT M07/M09 A3032 RMK A01 T10661093  RH  081%=      5-min Rain = 0
KPD3 091026Z 31006KT M07/M09 A3032 RMK A01 T10661093  RH  081%=      5-min Rain = 0
KPD3 091027Z 31006KT M07/M09 A3032 RMK A01 T10661092  RH  081%=      5-min Rain = 0
KPD3 091028Z 31006KT M07/M09 A3032 RMK A01 T10661092  RH  082%=      5-min Rain = 0
KPD3 091029Z 31005KT M07/M09 A3032 RMK A01 T10651092  RH  082%=      5-min Rain = 0
KPD3 091030Z 31005KT M07/M09 A3032 RMK A01 T10651091  RH  082%=      5-min Rain = 0
KPD3 091031Z 31005KT M07/M09 A3032 RMK A01 T10651091  RH  082%=      5-min Rain = 0
KPD3 091032Z 31005KT M07/M09 A3032 RMK A01 T10651091  RH  082%=      5-min Rain = 0
KPD3 091033Z 31005KT M07/M09 A3032 RMK A01 T10651092  RH  082%=      5-min Rain = 0
KPD3 091034Z 31005KT M07/M09 A3032 RMK A01 T10661092  RH  082%=      5-min Rain = 0
KPD3 091035Z 31005KT M07/M09 A3032 RMK A01 T10661093  RH  082%=      5-min Rain = 0
KPD3 091036Z 31005KT M07/M09 A3032 RMK A01 T10671093  RH  082%=      5-min Rain = 0
KPD3 091037Z 31005KT M07/M09 A3032 RMK A01 T10671093  RH  082%=      5-min Rain = 0
KPD3 091038Z 31005KT M07/M09 A3032 RMK A01 T10681093  RH  082%=      5-min Rain = 0
KPD3 091039Z 31005KT M07/M09 A3032 RMK A01 T10681093  RH  082%=      5-min Rain = 0
KPD3 091040Z 31005KT M07/M09 A3032 RMK A01 T10681093  RH  082%=      5-min Rain = 0
KPD3 091041Z 31006KT M07/M09 A3032 RMK A01 T10671092  RH  082%=      5-min Rain = 0
KPD3 091042Z 31006KT M07/M09 A3032 RMK A01 T10671092  RH  082%=      5-min Rain = 0
KPD3 091043Z 31006KT M07/M09 A3032 RMK A01 T10671092  RH  082%=      5-min Rain = 0
KPD3 091044Z 31006KT M07/M09 A3032 RMK A01 T10651090  RH  083%=      5-min Rain = 0
KPD3 091045Z 31006KT M06/M09 A3032 RMK A01 T10641089  RH  082%=      5-min Rain = 0
KPD3 091046Z 31006KT M06/M09 A3032 RMK A01 T10631089  RH  082%=      5-min Rain = 0
KPD3 091047Z 31007KT M06/M09 A3032 RMK A01 T10621087  RH  082%=      5-min Rain = 0
KPD3 091048Z 31007KT M06/M09 A3032 RMK A01 T10611086  RH  082%=      5-min Rain = 0
KPD3 091049Z 31006KT M06/M08 A3032 RMK A01 T10591084  RH  083%=      5-min Rain = 0
KPD3 091050Z 31006KT M06/M08 A3032 RMK A01 T10581083  RH  082%=      5-min Rain = 0
KPD3 091051Z 31007KT M06/M08 A3032 RMK A01 T10571083  RH  082%=      5-min Rain = 0
KPD3 091052Z 31007KT M06/M08 A3032 RMK A01 T10571083  RH  082%=      5-min Rain = 0
KPD3 091053Z 31007KT M06/M08 A3032 RMK A01 T10571083  RH  082%=      5-min Rain = 0
KPD3 091054Z 31007KT M06/M08 A3032 RMK A01 T10571083  RH  082%=      5-min Rain = 0
KPD3 091055Z 31007KT M06/M08 A3032 RMK A01 T10571083  RH  082%=      5-min Rain = 0
KPD3 091056Z 31008KT M06/M08 A3032 RMK A01 T10571083  RH  081%=      5-min Rain = 0
KPD3 091057Z 31008KT M06/M08 A3032 RMK A01 T10561083  RH  081%=      5-min Rain = 0
KPD3 091058Z 31008KT M06/M08 A3032 RMK A01 T10571084  RH  081%=      5-min Rain = 0
KPD3 091059Z 31008KT M06/M08 A3032 RMK A01 T10561084  RH  081%=      5-min Rain = 0
KPD3 091100Z 31008KT M06/M08 A3032 RMK A01 T10561084  RH  081%=      5-min Rain = 0
KPD3 091101Z 32007KT M06/M08 A3032 RMK A01 T10561084  RH  081%=      5-min Rain = 0
KPD3 091102Z 32007KT M06/M08 A3032 RMK A01 T10561084  RH  081%=      5-min Rain = 0
KPD3 091103Z 31007KT M06/M09 A3032 RMK A01 T10571085  RH  081%=      5-min Rain = 0
KPD3 091104Z 31007KT M06/M08 A3032 RMK A01 T10561084  RH  081%=      5-min Rain = 0
KPD3 091105Z 31007KT M06/M08 A3032 RMK A01 T10561084  RH  081%=      5-min Rain = 0
KPD3 091106Z 31006KT M06/M09 A3032 RMK A01 T10571085  RH  081%=      5-min Rain = 0
KPD3 091107Z 31006KT M06/M09 A3032 RMK A01 T10571085  RH  081%=      5-min Rain = 0
KPD3 091108Z 31006KT M06/M09 A3032 RMK A01 T10581085  RH  081%=      5-min Rain = 0
KPD3 091109Z 31007KT M06/M09 A3032 RMK A01 T10591086  RH  081%=      5-min Rain = 0
KPD3 091110Z 31007KT M06/M09 A3032 RMK A01 T10601086  RH  082%=      5-min Rain = 0
KPD3 091111Z 31007KT M06/M09 A3032 RMK A01 T10601086  RH  082%=      5-min Rain = 0
KPD3 091112Z 31007KT M06/M09 A3032 RMK A01 T10601086  RH  082%=      5-min Rain = 0
KPD3 091113Z 31007KT M06/M09 A3032 RMK A01 T10601086  RH  082%=      5-min Rain = 0
KPD3 091114Z 31007KT M06/M09 A3032 RMK A01 T10591085  RH  082%=      5-min Rain = 0
KPD3 091115Z 31007KT M06/M09 A3032 RMK A01 T10581085  RH  082%=      5-min Rain = 0
KPD3 091116Z 31007KT M06/M09 A3032 RMK A01 T10581085  RH  081%=      5-min Rain = 0
KPD3 091117Z 31008KT M06/M09 A3032 RMK A01 T10581085  RH  081%=      5-min Rain = 0
KPD3 091118Z 31008KT M06/M08 A3032 RMK A01 T10571084  RH  081%=      5-min Rain = 0
KPD3 091119Z 31008KT M06/M08 A3032 RMK A01 T10561084  RH  081%=      5-min Rain = 0
KPD3 091120Z 31008KT M06/M09 A3032 RMK A01 T10561085  RH  080%=      5-min Rain = 0
KPD3 091121Z 30008KT M06/M09 A3032 RMK A01 T10551085  RH  079%=      5-min Rain = 0
KPD3 091122Z 31008KT M05/M09 A3032 RMK A01 T10541085  RH  079%=      5-min Rain = 0
KPD3 091123Z 30007KT M05/M09 A3032 RMK A01 T10531085  RH  078%=      5-min Rain = 0
KPD3 091124Z 30007KT M05/M09 A3032 RMK A01 T10531085  RH  078%=      5-min Rain = 0
KPD3 091125Z 30007KT M05/M09 A3032 RMK A01 T10531085  RH  078%=      5-min Rain = 0
KPD3 091126Z 30007KT M05/M09 A3032 RMK A01 T10531086  RH  078%=      5-min Rain = 0
KPD3 091127Z 30007KT M05/M09 A3032 RMK A01 T10531086  RH  078%=      5-min Rain = 0
KPD3 091128Z 31007KT M05/M09 A3032 RMK A01 T10531086  RH  077%=      5-min Rain = 0
KPD3 091129Z 31007KT M05/M09 A3032 RMK A01 T10531086  RH  078%=      5-min Rain = 0
KPD3 091130Z 31007KT M05/M09 A3032 RMK A01 T10531087  RH  078%=      5-min Rain = 0
KPD3 091131Z 31007KT M05/M09 A3032 RMK A01 T10541087  RH  078%=      5-min Rain = 0
KPD3 091132Z 31007KT M05/M09 A3032 RMK A01 T10541087  RH  078%=      5-min Rain = 0
KPD3 091133Z 31007KT M05/M09 A3032 RMK A01 T10541086  RH  078%=      5-min Rain = 0
KPD3 091134Z 31007KT M05/M09 A3032 RMK A01 T10531086  RH  078%=      5-min Rain = 0
KPD3 091135Z 31008KT M05/M09 A3032 RMK A01 T10531087  RH  077%=      5-min Rain = 0
KPD3 091136Z 31008KT M05/M09 A3032 RMK A01 T10531087  RH  077%=      5-min Rain = 0
KPD3 091137Z 31008KT M05/M09 A3032 RMK A01 T10541087  RH  077%=      5-min Rain = 0
KPD3 091138Z 31008KT M05/M09 A3032 RMK A01 T10541088  RH  077%=      5-min Rain = 0
KPD3 091139Z 31008KT M06/M09 A3032 RMK A01 T10551088  RH  078%=      5-min Rain = 0
KPD3 091140Z 31008KT M06/M09 A3032 RMK A01 T10551088  RH  078%=      5-min Rain = 0
KPD3 091141Z 31008KT M06/M09 A3032 RMK A01 T10561088  RH  078%=      5-min Rain = 0
KPD3 091142Z 31008KT M06/M09 A3032 RMK A01 T10561088  RH  078%=      5-min Rain = 0
KPD3 091143Z 31007KT M06/M09 A3032 RMK A01 T10561088  RH  078%=      5-min Rain = 0
KPD3 091144Z 31007KT M06/M09 A3032 RMK A01 T10571089  RH  078%=      5-min Rain = 0
KPD3 091145Z 31007KT M06/M09 A3032 RMK A01 T10571089  RH  078%=      5-min Rain = 0
KPD3 091146Z 31007KT M06/M09 A3032 RMK A01 T10571089  RH  078%=      5-min Rain = 0
KPD3 091147Z 31007KT M06/M09 A3032 RMK A01 T10571089  RH  078%=      5-min Rain = 0
KPD3 091148Z 31007KT M06/M09 A3032 RMK A01 T10581090  RH  078%=      5-min Rain = 0
KPD3 091149Z 32006KT M06/M09 A3032 RMK A01 T10581090  RH  078%=      5-min Rain = 0
KPD3 091150Z 32006KT M06/M09 A3032 RMK A01 T10581090  RH  078%=      5-min Rain = 0
KPD3 091151Z 32006KT M06/M09 A3032 RMK A01 T10591090  RH  078%=      5-min Rain = 0
KPD3 091152Z 32006KT M06/M09 A3032 RMK A01 T10591091  RH  078%=      5-min Rain = 0
KPD3 091153Z 32006KT M06/M09 A3032 RMK A01 T10601091  RH  078%=      5-min Rain = 0
KPD3 091154Z 32006KT M06/M09 A3032 RMK A01 T10601091  RH  078%=      5-min Rain = 0
KPD3 091155Z 32006KT M06/M09 A3032 RMK A01 T10611092  RH  078%=      5-min Rain = 0
KPD3 091156Z 32007KT M06/M09 A3032 RMK A01 T10611092  RH  078%=      5-min Rain = 0
KPD3 091157Z 33007KT M06/M09 A3032 RMK A01 T10611093  RH  078%=      5-min Rain = 0
KPD3 091158Z 33007KT M06/M09 A3032 RMK A01 T10611093  RH  078%=      5-min Rain = 0
KPD3 091159Z 33007KT M06/M09 A3032 RMK A01 T10601093  RH  078%=      5-min Rain = 0
KPD3 091200Z 33007KT M06/M09 A3033 RMK A01 T10601093  RH  077%=      5-min Rain = 0
KPD3 091201Z 33007KT M06/M09 A3033 RMK A01 T10591093  RH  077%=      5-min Rain = 0
KPD3 091202Z 33007KT M06/M09 A3033 RMK A01 T10591093  RH  077%=      5-min Rain = 0
KPD3 091203Z 33007KT M06/M09 A3033 RMK A01 T10591093  RH  077%=      5-min Rain = 0
KPD3 091204Z 32007KT M06/M09 A3033 RMK A01 T10591093  RH  077%=      5-min Rain = 0
KPD3 091205Z 33007KT M06/M09 A3033 RMK A01 T10601093  RH  077%=      5-min Rain = 0
KPD3 091206Z 33007KT M06/M09 A3033 RMK A01 T10601093  RH  077%=      5-min Rain = 0
KPD3 091207Z 33007KT M06/M09 A3033 RMK A01 T10601093  RH  078%=      5-min Rain = 0
KPD3 091208Z 33007KT M06/M09 A3033 RMK A01 T10611093  RH  078%=      5-min Rain = 0
KPD3 091209Z 33007KT M06/M09 A3033 RMK A01 T10611094  RH  078%=      5-min Rain = 0
KPD3 091210Z 32007KT M06/M09 A3033 RMK A01 T10621094  RH  078%=      5-min Rain = 0
KPD3 091211Z 33007KT M06/M09 A3033 RMK A01 T10621093  RH  078%=      5-min Rain = 0
KPD3 091212Z 33007KT M06/M09 A3033 RMK A01 T10621093  RH  079%=      5-min Rain = 0
KPD3 091213Z 33006KT M06/M09 A3033 RMK A01 T10621094  RH  078%=      5-min Rain = 0
KPD3 091214Z 33006KT M06/M09 A3033 RMK A01 T10621093  RH  078%=      5-min Rain = 0
KPD3 091215Z 33007KT M06/M09 A3033 RMK A01 T10611093  RH  078%=      5-min Rain = 0
KPD3 091216Z 33007KT M06/M09 A3033 RMK A01 T10611093  RH  078%=      5-min Rain = 0
KPD3 091217Z 33007KT M06/M09 A3033 RMK A01 T10611093  RH  078%=      5-min Rain = 0
KPD3 091218Z 33007KT M06/M09 A3033 RMK A01 T10611094  RH  078%=      5-min Rain = 0
KPD3 091219Z 33007KT M06/M09 A3033 RMK A01 T10611093  RH  078%=      5-min Rain = 0
KPD3 091220Z 33007KT M06/M09 A3033 RMK A01 T10611093  RH  078%=      5-min Rain = 0
KPD3 091221Z 32007KT M06/M09 A3033 RMK A01 T10611093  RH  078%=      5-min Rain = 0
KPD3 091222Z 32007KT M06/M09 A3033 RMK A01 T10611093  RH  078%=      5-min Rain = 0
KPD3 091223Z 32006KT M06/M09 A3033 RMK A01 T10611093  RH  078%=      5-min Rain = 0
KPD3 091224Z 31006KT M06/M09 A3033 RMK A01 T10611092  RH  078%=      5-min Rain = 0
KPD3 091225Z 31006KT M06/M09 A3033 RMK A01 T10611092  RH  079%=      5-min Rain = 0
KPD3 091226Z 31007KT M06/M09 A3033 RMK A01 T10611092  RH  079%=      5-min Rain = 0
KPD3 091227Z 31006KT M06/M09 A3033 RMK A01 T10611092  RH  079%=      5-min Rain = 0
KPD3 091228Z 31006KT M06/M09 A3033 RMK A01 T10611093  RH  078%=      5-min Rain = 0
KPD3 091229Z 31006KT M06/M09 A3033 RMK A01 T10611093  RH  078%=      5-min Rain = 0
KPD3 091230Z 31006KT M06/M09 A3033 RMK A01 T10611093  RH  078%=      5-min Rain = 0
KPD3 091231Z 31006KT M06/M09 A3034 RMK A01 T10601093  RH  078%=      5-min Rain = 0
KPD3 091232Z 31006KT M06/M09 A3034 RMK A01 T10611093  RH  078%=      5-min Rain = 0
KPD3 091233Z 31006KT M06/M09 A3034 RMK A01 T10611094  RH  078%=      5-min Rain = 0
KPD3 091234Z 31007KT M06/M09 A3034 RMK A01 T10611094  RH  077%=      5-min Rain = 0
KPD3 091235Z 31007KT M06/M09 A3034 RMK A01 T10611094  RH  077%=      5-min Rain = 0
KPD3 091236Z 31007KT M06/M09 A3034 RMK A01 T10621094  RH  078%=      5-min Rain = 0
KPD3 091237Z 32008KT M06/M09 A3034 RMK A01 T10621094  RH  078%=      5-min Rain = 0
KPD3 091238Z 32008KT M06/M09 A3034 RMK A01 T10601093  RH  077%=      5-min Rain = 0
KPD3 091239Z 32008KT M06/M09 A3034 RMK A01 T10591093  RH  077%=      5-min Rain = 0
KPD3 091240Z 32008KT M06/M09 A3034 RMK A01 T10571092  RH  076%=      5-min Rain = 0
KPD3 091241Z 32007KT M06/M09 A3034 RMK A01 T10571092  RH  076%=      5-min Rain = 0
KPD3 091242Z 32007KT M06/M09 A3034 RMK A01 T10561092  RH  076%=      5-min Rain = 0
KPD3 091243Z 32007KT M06/M09 A3034 RMK A01 T10561092  RH  076%=      5-min Rain = 0
KPD3 091244Z 31007KT M06/M09 A3034 RMK A01 T10561092  RH  076%=      5-min Rain = 0
KPD3 091245Z 31007KT M06/M09 A3034 RMK A01 T10561093  RH  075%=      5-min Rain = 0
KPD3 091246Z 31007KT M06/M09 A3034 RMK A01 T10561093  RH  075%=      5-min Rain = 0
KPD3 091247Z 31007KT M06/M09 A3034 RMK A01 T10561093  RH  075%=      5-min Rain = 0
KPD3 091248Z 31008KT M06/M09 A3034 RMK A01 T10571094  RH  075%=      5-min Rain = 0
KPD3 091249Z 31008KT M06/M09 A3034 RMK A01 T10571094  RH  075%=      5-min Rain = 0
KPD3 091250Z 31008KT M06/M09 A3034 RMK A01 T10571094  RH  075%=      5-min Rain = 0
KPD3 091251Z 30008KT M06/M09 A3034 RMK A01 T10581094  RH  076%=      5-min Rain = 0
KPD3 091252Z 30008KT M06/M09 A3034 RMK A01 T10581094  RH  076%=      5-min Rain = 0
KPD3 091253Z 30008KT M06/M09 A3034 RMK A01 T10591094  RH  076%=      5-min Rain = 0
KPD3 091254Z 30008KT M06/M09 A3035 RMK A01 T10591094  RH  076%=      5-min Rain = 0
KPD3 091255Z 30008KT M06/M09 A3035 RMK A01 T10591093  RH  076%=      5-min Rain = 0
KPD3 091256Z 30008KT M06/M09 A3035 RMK A01 T10591093  RH  077%=      5-min Rain = 0
KPD3 091257Z 30008KT M06/M09 A3035 RMK A01 T10591093  RH  077%=      5-min Rain = 0
KPD3 091258Z 30007KT M06/M09 A3035 RMK A01 T10591093  RH  077%=      5-min Rain = 0
KPD3 091259Z 30007KT M06/M09 A3035 RMK A01 T10591093  RH  077%=      5-min Rain = 0
KPD3 091300Z 30007KT M06/M09 A3035 RMK A01 T10591093  RH  077%=      5-min Rain = 0
KPD3 091301Z 31007KT M06/M09 A3035 RMK A01 T10591094  RH  076%=      5-min Rain = 0
KPD3 091302Z 31007KT M06/M09 A3035 RMK A01 T10591094  RH  076%=      5-min Rain = 0
KPD3 091303Z 31007KT M06/M09 A3035 RMK A01 T10591094  RH  076%=      5-min Rain = 0
KPD3 091304Z 31007KT M06/M09 A3035 RMK A01 T10601094  RH  076%=      5-min Rain = 0
KPD3 091305Z 31006KT M06/M09 A3035 RMK A01 T10601094  RH  077%=      5-min Rain = 0
KPD3 091306Z 31006KT M06/M09 A3035 RMK A01 T10601094  RH  077%=      5-min Rain = 0
KPD3 091307Z 31007KT M06/M09 A3035 RMK A01 T10601094  RH  077%=      5-min Rain = 0
KPD3 091308Z 31007KT M06/M09 A3035 RMK A01 T10601094  RH  077%=      5-min Rain = 0
KPD3 091309Z 31007KT M06/M09 A3035 RMK A01 T10601094  RH  077%=      5-min Rain = 0
KPD3 091310Z 31007KT M06/M09 A3035 RMK A01 T10591093  RH  077%=      5-min Rain = 0
KPD3 091311Z 31007KT M06/M09 A3035 RMK A01 T10581091  RH  077%=      5-min Rain = 0
KPD3 091312Z 30007KT M06/M09 A3035 RMK A01 T10571091  RH  077%=      5-min Rain = 0
KPD3 091313Z 30008KT M06/M09 A3035 RMK A01 T10561090  RH  077%=      5-min Rain = 0
KPD3 091314Z 31008KT M06/M09 A3035 RMK A01 T10561091  RH  076%=      5-min Rain = 0
KPD3 091315Z 31008KT M06/M09 A3035 RMK A01 T10551091  RH  076%=      5-min Rain = 0
KPD3 091316Z 30009KT M06/M09 A3035 RMK A01 T10561091  RH  076%=      5-min Rain = 0
KPD3 091317Z 30009KT M06/M09 A3035 RMK A01 T10561091  RH  077%=      5-min Rain = 0
KPD3 091318Z 30009KT M06/M09 A3035 RMK A01 T10561090  RH  077%=      5-min Rain = 0
KPD3 091319Z 30008KT M06/M09 A3035 RMK A01 T10561089  RH  078%=      5-min Rain = 0
KPD3 091320Z 31008KT M06/M09 A3035 RMK A01 T10551088  RH  078%=      5-min Rain = 0
KPD3 091321Z 31008KT M06/M09 A3035 RMK A01 T10551088  RH  078%=      5-min Rain = 0
KPD3 091322Z 31008KT M06/M09 A3035 RMK A01 T10551088  RH  078%=      5-min Rain = 0
KPD3 091323Z 31008KT M06/M09 A3035 RMK A01 T10551088  RH  078%=      5-min Rain = 0
KPD3 091324Z 31008KT M06/M09 A3036 RMK A01 T10561088  RH  078%=      5-min Rain = 0
KPD3 091325Z 31008KT M06/M09 A3036 RMK A01 T10561087  RH  079%=      5-min Rain = 0
KPD3 091326Z 31007KT M06/M09 A3036 RMK A01 T10561086  RH  079%=      5-min Rain = 0
KPD3 091327Z 31007KT M06/M09 A3036 RMK A01 T10561086  RH  079%=      5-min Rain = 0
KPD3 091328Z 31007KT M06/M09 A3036 RMK A01 T10551085  RH  079%=      5-min Rain = 0
KPD3 091329Z 31007KT M06/M09 A3036 RMK A01 T10551085  RH  079%=      5-min Rain = 0
KPD3 091330Z 31007KT M06/M09 A3036 RMK A01 T10551085  RH  079%=      5-min Rain = 0
KPD3 091331Z 31007KT M05/M09 A3036 RMK A01 T10541085  RH  079%=      5-min Rain = 0
KPD3 091332Z 31007KT M05/M09 A3036 RMK A01 T10541085  RH  079%=      5-min Rain = 0
KPD3 091333Z 31007KT M06/M09 A3036 RMK A01 T10551085  RH  079%=      5-min Rain = 0
KPD3 091334Z 31007KT M06/M09 A3036 RMK A01 T10561086  RH  079%=      5-min Rain = 0
KPD3 091335Z 31007KT M06/M09 A3036 RMK A01 T10561086  RH  080%=      5-min Rain = 0
KPD3 091336Z 31007KT M06/M09 A3036 RMK A01 T10581087  RH  080%=      5-min Rain = 0
KPD3 091337Z 31008KT M06/M09 A3036 RMK A01 T10581087  RH  080%=      5-min Rain = 0
KPD3 091338Z 31008KT M06/M09 A3036 RMK A01 T10591087  RH  080%=      5-min Rain = 0
KPD3 091339Z 32008KT M06/M09 A3036 RMK A01 T10601087  RH  081%=      5-min Rain = 0
KPD3 091340Z 32007KT M06/M09 A3036 RMK A01 T10601087  RH  081%=      5-min Rain = 0
KPD3 091341Z 32007KT M06/M09 A3036 RMK A01 T10601087  RH  081%=      5-min Rain = 0
KPD3 091342Z 32007KT M06/M09 A3036 RMK A01 T10611087  RH  082%=      5-min Rain = 0
KPD3 091343Z 32006KT M06/M09 A3036 RMK A01 T10621088  RH  082%=      5-min Rain = 0
KPD3 091344Z 32006KT M06/M09 A3036 RMK A01 T10621088  RH  082%=      5-min Rain = 0
KPD3 091345Z 32005KT M06/M09 A3036 RMK A01 T10631088  RH  082%=      5-min Rain = 0
KPD3 091346Z 32005KT M06/M09 A3036 RMK A01 T10631089  RH  082%=      5-min Rain = 0
KPD3 091347Z 33004KT M06/M09 A3036 RMK A01 T10631089  RH  082%=      5-min Rain = 0
KPD3 091348Z 33004KT M06/M09 A3036 RMK A01 T10631089  RH  082%=      5-min Rain = 0
KPD3 091349Z 33004KT M06/M09 A3036 RMK A01 T10631088  RH  083%=      5-min Rain = 0
KPD3 091350Z 33004KT M06/M09 A3036 RMK A01 T10631088  RH  083%=      5-min Rain = 0
KPD3 091351Z 33004KT M06/M09 A3036 RMK A01 T10631088  RH  083%=      5-min Rain = 0
KPD3 091352Z 34004KT M06/M09 A3036 RMK A01 T10631088  RH  083%=      5-min Rain = 0
KPD3 091353Z 34003KT M06/M09 A3036 RMK A01 T10631088  RH  082%=      5-min Rain = 0
KPD3 091354Z 34003KT M06/M09 A3036 RMK A01 T10621088  RH  082%=      5-min Rain = 0
KPD3 091355Z 34003KT M06/M09 A3037 RMK A01 T10621089  RH  082%=      5-min Rain = 0
KPD3 091356Z 33003KT M06/M09 A3037 RMK A01 T10631089  RH  082%=      5-min Rain = 0
KPD3 091357Z 33004KT M06/M09 A3037 RMK A01 T10631089  RH  082%=      5-min Rain = 0
KPD3 091358Z 32004KT M06/M09 A3037 RMK A01 T10641090  RH  082%=      5-min Rain = 0
KPD3 091359Z 32004KT M07/M09 A3037 RMK A01 T10651091  RH  082%=      5-min Rain = 0
KPD3 091400Z 32004KT M07/M09 A3037 RMK A01 T10661092  RH  082%=      5-min Rain = 0
KPD3 091401Z 32004KT M07/M09 A3037 RMK A01 T10661092  RH  082%=      5-min Rain = 0
KPD3 091402Z 32005KT M07/M09 A3037 RMK A01 T10661091  RH  083%=      5-min Rain = 0
KPD3 091403Z 31005KT M07/M09 A3037 RMK A01 T10671090  RH  083%=      5-min Rain = 0
KPD3 091404Z 31005KT M07/M09 A3037 RMK A01 T10661089  RH  083%=      5-min Rain = 0
KPD3 091405Z 31005KT M07/M09 A3037 RMK A01 T10651088  RH  083%=      5-min Rain = 0
KPD3 091406Z 31005KT M06/M09 A3037 RMK A01 T10641088  RH  083%=      5-min Rain = 0
KPD3 091407Z 31005KT M06/M09 A3037 RMK A01 T10631088  RH  083%=      5-min Rain = 0
KPD3 091408Z 30005KT M06/M09 A3037 RMK A01 T10631088  RH  082%=      5-min Rain = 0
KPD3 091409Z 30005KT M06/M09 A3037 RMK A01 T10631088  RH  082%=      5-min Rain = 0
KPD3 091410Z 30004KT M06/M09 A3037 RMK A01 T10621088  RH  082%=      5-min Rain = 0
KPD3 091411Z 30004KT M06/M09 A3037 RMK A01 T10621088  RH  082%=      5-min Rain = 0
KPD3 091412Z 30003KT M06/M09 A3037 RMK A01 T10621088  RH  082%=      5-min Rain = 0
KPD3 091413Z 30003KT M06/M09 A3037 RMK A01 T10621088  RH  082%=      5-min Rain = 0
KPD3 091414Z 30003KT M06/M09 A3037 RMK A01 T10621088  RH  082%=      5-min Rain = 0
KPD3 091415Z 30003KT M06/M09 A3037 RMK A01 T10621088  RH  082%=      5-min Rain = 0
KPD3 091416Z 30002KT M06/M09 A3037 RMK A01 T10631090  RH  081%=      5-min Rain = 0
KPD3 091417Z 30002KT M06/M09 A3037 RMK A01 T10631090  RH  081%=      5-min Rain = 0
KPD3 091418Z 30002KT M06/M09 A3037 RMK A01 T10621089  RH  081%=      5-min Rain = 0
KPD3 091419Z 30002KT M06/M09 A3037 RMK A01 T10611088  RH  081%=      5-min Rain = 0
KPD3 091420Z 30002KT M06/M09 A3037 RMK A01 T10601085  RH  082%=      5-min Rain = 0
KPD3 091421Z 30002KT M06/M08 A3037 RMK A01 T10581083  RH  083%=      5-min Rain = 0
KPD3 091422Z 30003KT M06/M08 A3037 RMK A01 T10561081  RH  083%=      5-min Rain = 0
KPD3 091423Z 30002KT M05/M08 A3037 RMK A01 T10541079  RH  083%=      5-min Rain = 0
KPD3 091424Z 31002KT M05/M08 A3037 RMK A01 T10521078  RH  082%=      5-min Rain = 0
KPD3 091425Z 30002KT M05/M08 A3037 RMK A01 T10501076  RH  082%=      5-min Rain = 0
KPD3 091426Z 31003KT M05/M07 A3037 RMK A01 T10481074  RH  082%=      5-min Rain = 0
KPD3 091427Z 30003KT M05/M07 A3037 RMK A01 T10461073  RH  081%=      5-min Rain = 0
KPD3 091428Z 31003KT M05/M07 A3037 RMK A01 T10451073  RH  080%=      5-min Rain = 0
KPD3 091429Z 30002KT M04/M07 A3037 RMK A01 T10431071  RH  081%=      5-min Rain = 0
KPD3 091430Z 30002KT M04/M07 A3037 RMK A01 T10411070  RH  081%=      5-min Rain = 0
KPD3 091431Z 30002KT M04/M07 A3037 RMK A01 T10401069  RH  080%=      5-min Rain = 0
KPD3 091432Z 31002KT M04/M07 A3037 RMK A01 T10381068  RH  080%=      5-min Rain = 0
KPD3 091433Z 31002KT M04/M07 A3037 RMK A01 T10371067  RH  080%=      5-min Rain = 0
KPD3 091434Z 31003KT M04/M07 A3037 RMK A01 T10371068  RH  079%=      5-min Rain = 0
KPD3 091435Z 31003KT M04/M07 A3037 RMK A01 T10351068  RH  078%=      5-min Rain = 0
KPD3 091436Z 31003KT M03/M07 A3037 RMK A01 T10341066  RH  078%=      5-min Rain = 0
KPD3 091437Z 32003KT M03/M07 A3037 RMK A01 T10331065  RH  078%=      5-min Rain = 0
KPD3 091438Z 32002KT M03/M07 A3037 RMK A01 T10311065  RH  078%=      5-min Rain = 0
KPD3 091439Z 32002KT M03/M06 A3037 RMK A01 T10301064  RH  077%=      5-min Rain = 0
KPD3 091440Z 33003KT M03/M07 A3037 RMK A01 T10281066  RH  075%=      5-min Rain = 0
KPD3 091441Z 33002KT M03/M07 A3037 RMK A01 T10261066  RH  074%=      5-min Rain = 0
KPD3 091442Z 33002KT M02/M07 A3037 RMK A01 T10241065  RH  074%=      5-min Rain = 0
KPD3 091443Z 32002KT M02/M07 A3037 RMK A01 T10221065  RH  073%=      5-min Rain = 0
KPD3 091444Z 32002KT M02/M07 A3037 RMK A01 T10211068  RH  070%=      5-min Rain = 0
KPD3 091445Z 32002KT M02/M07 A3037 RMK A01 T10201068  RH  070%=      5-min Rain = 0
KPD3 091446Z 32003KT M02/M07 A3037 RMK A01 T10181068  RH  069%=      5-min Rain = 0
KPD3 091447Z 32003KT M02/M07 A3037 RMK A01 T10181070  RH  068%=      5-min Rain = 0
KPD3 091448Z 32002KT M02/M07 A3037 RMK A01 T10171070  RH  067%=      5-min Rain = 0
KPD3 091449Z 32002KT M02/M06 A3037 RMK A01 T10151064  RH  069%=      5-min Rain = 0
KPD3 091450Z 32002KT M01/M07 A3037 RMK A01 T10141066  RH  068%=      5-min Rain = 0
KPD3 091451Z 32003KT M01/M07 A3037 RMK A01 T10141067  RH  067%=      5-min Rain = 0
KPD3 091452Z 32003KT M01/M07 A3037 RMK A01 T10131069  RH  065%=      5-min Rain = 0
KPD3 091453Z 32002KT M01/M07 A3037 RMK A01 T10121067  RH  066%=      5-min Rain = 0
KPD3 091454Z 32002KT M01/M07 A3037 RMK A01 T10111067  RH  065%=      5-min Rain = 0
KPD3 091455Z 31002KT M01/M07 A3037 RMK A01 T10101069  RH  064%=      5-min Rain = 0
KPD3 091456Z 32001KT M01/M07 A3037 RMK A01 T10091070  RH  063%=      5-min Rain = 0
KPD3 091457Z 32001KT M01/M07 A3038 RMK A01 T10081067  RH  064%=      5-min Rain = 0
KPD3 091458Z 32001KT M01/M07 A3038 RMK A01 T10071068  RH  063%=      5-min Rain = 0
KPD3 091459Z 34001KT M01/M07 A3038 RMK A01 T10061071  RH  061%=      5-min Rain = 0
KPD3 091500Z 33001KT M01/M07 A3038 RMK A01 T10061074  RH  060%=      5-min Rain = 0
KPD3 091501Z 32001KT M01/M08 A3038 RMK A01 T10051075  RH  059%=      5-min Rain = 0
KPD3 091502Z 35000KT M00/M07 A3038 RMK A01 T10041073  RH  059%=      5-min Rain = 0
KPD3 091503Z 35000KT M00/M08 A3038 RMK A01 T10031075  RH  058%=      5-min Rain = 0
KPD3 091504Z 29000KT M00/M08 A3038 RMK A01 T10021075  RH  058%=      5-min Rain = 0
KPD3 091505Z 31000KT M00/M08 A3038 RMK A01 T10011076  RH  057%=      5-min Rain = 0
KPD3 091506Z 35000KT 00/08 A3038 RMK A01 T00-00-77  RH  056%=      5-min Rain = 0
KPD3 091507Z 34001KT 00/M08 A3038 RMK A01 T00011076  RH  056%=      5-min Rain = 0
KPD3 091508Z 32001KT 00/M08 A3038 RMK A01 T00011080  RH  054%=      5-min Rain = 0
KPD3 091509Z 00000KT 00/M08 A3038 RMK A01 T00021075  RH  056%=      5-min Rain = 0
KPD3 091510Z 18001KT 00/M07 A3038 RMK A01 T00031069  RH  058%=      5-min Rain = 0
KPD3 091511Z 19001KT 00/M06 A3038 RMK A01 T00031060  RH  062%=      5-min Rain = 0
KPD3 091512Z 19001KT 00/M06 A3038 RMK A01 T00031061  RH  062%=      5-min Rain = 0
KPD3 091513Z 15000KT 00/M07 A3038 RMK A01 T00021065  RH  061%=      5-min Rain = 0
KPD3 091514Z 16000KT 00/M07 A3038 RMK A01 T00021065  RH  061%=      5-min Rain = 0
KPD3 091515Z 00000KT 00/M06 A3038 RMK A01 T00031062  RH  062%=      5-min Rain = 0
KPD3 091516Z 18000KT 01/M06 A3038 RMK A01 T00051063  RH  061%=      5-min Rain = 0
KPD3 091517Z 21001KT 01/M06 A3038 RMK A01 T00061062  RH  060%=      5-min Rain = 0
KPD3 091518Z 20000KT 01/M06 A3039 RMK A01 T00071064  RH  059%=      5-min Rain = 0
KPD3 091519Z 20001KT 01/M06 A3039 RMK A01 T00071061  RH  060%=      5-min Rain = 0
KPD3 091520Z 21001KT 01/M06 A3039 RMK A01 T00081062  RH  059%=      5-min Rain = 0
KPD3 091521Z 23000KT 01/M06 A3039 RMK A01 T00081063  RH  059%=      5-min Rain = 0
KPD3 091522Z 27000KT 01/M06 A3039 RMK A01 T00091060  RH  060%=      5-min Rain = 0
KPD3 091523Z 25000KT 01/M06 A3039 RMK A01 T00111062  RH  058%=      5-min Rain = 0
KPD3 091524Z 30001KT 01/M06 A3039 RMK A01 T00131061  RH  058%=      5-min Rain = 0
KPD3 091525Z 27000KT 01/M06 A3039 RMK A01 T00131063  RH  057%=      5-min Rain = 0
KPD3 091526Z 07001KT 01/M06 A3039 RMK A01 T00141060  RH  058%=      5-min Rain = 0
KPD3 091527Z 10002KT 02/M05 A3039 RMK A01 T00151053  RH  060%=      5-min Rain = 0
KPD3 091528Z 09002KT 02/M05 A3039 RMK A01 T00151053  RH  061%=      5-min Rain = 0
KPD3 091529Z 09002KT 01/M05 A3039 RMK A01 T00141052  RH  061%=      5-min Rain = 0
KPD3 091530Z 11001KT 01/M06 A3039 RMK A01 T00131057  RH  059%=      5-min Rain = 0
KPD3 091531Z 10001KT 01/M06 A3039 RMK A01 T00131058  RH  059%=      5-min Rain = 0
KPD3 091532Z 11001KT 01/M06 A3039 RMK A01 T00141059  RH  058%=      5-min Rain = 0
KPD3 091533Z 10002KT 02/M05 A3039 RMK A01 T00161054  RH  060%=      5-min Rain = 0
KPD3 091534Z 09002KT 02/M05 A3039 RMK A01 T00151049  RH  062%=      5-min Rain = 0
KPD3 091535Z 09001KT 02/M05 A3039 RMK A01 T00151046  RH  064%=      5-min Rain = 0
KPD3 091536Z 09002KT 02/M05 A3039 RMK A01 T00151046  RH  064%=      5-min Rain = 0
KPD3 091537Z 09002KT 02/M05 A3039 RMK A01 T00161047  RH  063%=      5-min Rain = 0
KPD3 091538Z 08002KT 02/M05 A3039 RMK A01 T00151048  RH  063%=      5-min Rain = 0
KPD3 091539Z 08002KT 01/M05 A3039 RMK A01 T00141050  RH  062%=      5-min Rain = 0
KPD3 091540Z 09002KT 01/M05 A3039 RMK A01 T00141052  RH  062%=      5-min Rain = 0
KPD3 091541Z 10002KT 01/M05 A3039 RMK A01 T00141050  RH  063%=      5-min Rain = 0
KPD3 091542Z 11001KT 01/M05 A304 RMK A01 T00141049  RH  063%=      5-min Rain = 0
KPD3 091543Z 08002KT 02/M05 A304 RMK A01 T00151049  RH  062%=      5-min Rain = 0
KPD3 091544Z 09002KT 02/M05 A304 RMK A01 T00161049  RH  062%=      5-min Rain = 0
KPD3 091545Z 10002KT 02/M04 A304 RMK A01 T00171044  RH  064%=      5-min Rain = 0
KPD3 091546Z 09002KT 02/M05 A304 RMK A01 T00171046  RH  063%=      5-min Rain = 0
KPD3 091547Z 08002KT 02/M05 A304 RMK A01 T00181046  RH  062%=      5-min Rain = 0
KPD3 091548Z 08001KT 02/M05 A304 RMK A01 T00181049  RH  061%=      5-min Rain = 0
KPD3 091549Z 08001KT 02/M05 A304 RMK A01 T00191050  RH  060%=      5-min Rain = 0
KPD3 091550Z 11000KT 02/M05 A304 RMK A01 T00191051  RH  060%=      5-min Rain = 0
KPD3 091551Z 08001KT 02/M05 A304 RMK A01 T00221047  RH  060%=      5-min Rain = 0
KPD3 091552Z 05001KT 02/M05 A304 RMK A01 T00241048  RH  059%=      5-min Rain = 0
KPD3 091553Z 08001KT 02/M05 A304 RMK A01 T00241051  RH  058%=      5-min Rain = 0
KPD3 091554Z 06001KT 03/M05 A304 RMK A01 T00251050  RH  057%=      5-min Rain = 0
KPD3 091555Z 06001KT 03/M05 A304 RMK A01 T00281047  RH  058%=      5-min Rain = 0
KPD3 091556Z 11001KT 03/M05 A304 RMK A01 T00291053  RH  055%=      5-min Rain = 0
KPD3 091557Z 03002KT 03/M05 A304 RMK A01 T00291053  RH  054%=      5-min Rain = 0
KPD3 091558Z 01002KT 03/M05 A304 RMK A01 T00301054  RH  054%=      5-min Rain = 0
KPD3 091559Z 36003KT 03/M06 A3039 RMK A01 T00301060  RH  052%=      5-min Rain = 0
KPD3 091600Z 01002KT 03/M06 A3039 RMK A01 T00291057  RH  053%=      5-min Rain = 0
KPD3 091601Z 02002KT 03/M05 A3039 RMK A01 T00291054  RH  054%=      5-min Rain = 0
KPD3 091602Z 02002KT 03/M06 A3039 RMK A01 T00301058  RH  052%=      5-min Rain = 0
KPD3 091603Z 36001KT 03/M06 A3039 RMK A01 T00301058  RH  052%=      5-min Rain = 0
KPD3 091604Z 01002KT 03/M06 A3039 RMK A01 T00311056  RH  053%=      5-min Rain = 0
KPD3 091605Z 02003KT 03/M05 A3039 RMK A01 T00331053  RH  053%=      5-min Rain = 0
KPD3 091606Z 01002KT 03/M05 A3039 RMK A01 T00321053  RH  053%=      5-min Rain = 0
KPD3 091607Z 02002KT 03/M06 A3039 RMK A01 T00321056  RH  053%=      5-min Rain = 0
KPD3 091608Z 02002KT 03/M06 A304 RMK A01 T00321057  RH  052%=      5-min Rain = 0
KPD3 091609Z 03001KT 03/M06 A304 RMK A01 T00311058  RH  052%=      5-min Rain = 0
KPD3 091610Z 05002KT 03/M06 A304 RMK A01 T00311056  RH  053%=      5-min Rain = 0
KPD3 091611Z 07003KT 03/M05 A304 RMK A01 T00321054  RH  053%=      5-min Rain = 0
KPD3 091612Z 05003KT 03/M05 A304 RMK A01 T00341051  RH  054%=      5-min Rain = 0
KPD3 091613Z 04003KT 03/M05 A304 RMK A01 T00341054  RH  052%=      5-min Rain = 0
KPD3 091614Z 03001KT 03/M06 A304 RMK A01 T00341057  RH  051%=      5-min Rain = 0
KPD3 091615Z 06002KT 03/M05 A304 RMK A01 T00341052  RH  053%=      5-min Rain = 0
KPD3 091616Z 04002KT 04/M05 A304 RMK A01 T00361049  RH  054%=      5-min Rain = 0
KPD3 091617Z 00000KT 04/M05 A304 RMK A01 T00371052  RH  052%=      5-min Rain = 0
KPD3 091618Z 10000KT 04/M05 A304 RMK A01 T00391051  RH  052%=      5-min Rain = 0
KPD3 091619Z 05002KT 04/M05 A304 RMK A01 T00411049  RH  052%=      5-min Rain = 0
KPD3 091620Z 03002KT 04/M05 A304 RMK A01 T00421047  RH  052%=      5-min Rain = 0
KPD3 091621Z 04001KT 04/M05 A304 RMK A01 T00421053  RH  050%=      5-min Rain = 0
KPD3 091622Z 05002KT 04/M05 A304 RMK A01 T00421051  RH  051%=      5-min Rain = 0
KPD3 091623Z 05002KT 04/M05 A304 RMK A01 T00421050  RH  051%=      5-min Rain = 0
KPD3 091624Z 07001KT 04/M05 A304 RMK A01 T00421051  RH  051%=      5-min Rain = 0
KPD3 091625Z 05001KT 04/M05 A304 RMK A01 T00431050  RH  051%=      5-min Rain = 0
KPD3 091626Z 05001KT 05/M05 A304 RMK A01 T00451047  RH  051%=      5-min Rain = 0
KPD3 091627Z 03002KT 05/M05 A304 RMK A01 T00451048  RH  051%=      5-min Rain = 0
KPD3 091628Z 01002KT 05/M05 A304 RMK A01 T00451054  RH  048%=      5-min Rain = 0
KPD3 091629Z 34002KT 04/M05 A304 RMK A01 T00441054  RH  049%=      5-min Rain = 0
KPD3 091630Z 01001KT 04/M05 A304 RMK A01 T00441054  RH  049%=      5-min Rain = 0
KPD3 091631Z 08002KT 05/M05 A304 RMK A01 T00451050  RH  050%=      5-min Rain = 0
KPD3 091632Z 00002KT 05/M05 A304 RMK A01 T00461051  RH  050%=      5-min Rain = 0
KPD3 091633Z 02001KT 05/M05 A304 RMK A01 T00461053  RH  048%=      5-min Rain = 0
KPD3 091634Z 02003KT 05/M05 A304 RMK A01 T00471051  RH  049%=      5-min Rain = 0
KPD3 091635Z 36003KT 05/M05 A304 RMK A01 T00471054  RH  048%=      5-min Rain = 0
KPD3 091636Z 01004KT 05/M05 A304 RMK A01 T00471054  RH  048%=      5-min Rain = 0
KPD3 091637Z 01003KT 05/M05 A304 RMK A01 T00481050  RH  049%=      5-min Rain = 0
KPD3 091638Z 01003KT 05/M05 A304 RMK A01 T00491053  RH  047%=      5-min Rain = 0
KPD3 091639Z 02004KT 05/M05 A304 RMK A01 T00491053  RH  047%=      5-min Rain = 0
KPD3 091640Z 01003KT 05/M05 A304 RMK A01 T00491054  RH  047%=      5-min Rain = 0
KPD3 091641Z 00002KT 05/M06 A304 RMK A01 T00491056  RH  047%=      5-min Rain = 0
KPD3 091642Z 36003KT 05/M05 A304 RMK A01 T00491054  RH  048%=      5-min Rain = 0
KPD3 091643Z 35004KT 05/M05 A304 RMK A01 T00501052  RH  048%=      5-min Rain = 0
KPD3 091644Z 03003KT 05/M05 A304 RMK A01 T00511054  RH  047%=      5-min Rain = 0
KPD3 091645Z 03003KT 05/M05 A304 RMK A01 T00501053  RH  047%=      5-min Rain = 0
KPD3 091646Z 01002KT 05/M06 A304 RMK A01 T00501056  RH  046%=      5-min Rain = 0
KPD3 091647Z 02005KT 05/M06 A304 RMK A01 T00501057  RH  046%=      5-min Rain = 0
KPD3 091648Z 03003KT 05/M06 A304 RMK A01 T00501055  RH  047%=      5-min Rain = 0
KPD3 091649Z 01004KT 05/M05 A304 RMK A01 T00511051  RH  048%=      5-min Rain = 0
KPD3 091650Z 36003KT 05/M05 A304 RMK A01 T00521054  RH  046%=      5-min Rain = 0
KPD3 091651Z 01004KT 05/M05 A304 RMK A01 T00541050  RH  047%=      5-min Rain = 0
KPD3 091652Z 00006KT 06/M05 A304 RMK A01 T00551052  RH  046%=      5-min Rain = 0
KPD3 091653Z 00006KT 06/M05 A304 RMK A01 T00561050  RH  047%=      5-min Rain = 0
KPD3 091654Z 00007KT 06/M05 A304 RMK A01 T00571053  RH  045%=      5-min Rain = 0
KPD3 091655Z 01006KT 06/M05 A304 RMK A01 T00551054  RH  045%=      5-min Rain = 0
KPD3 091656Z 01004KT 06/M05 A304 RMK A01 T00551053  RH  046%=      5-min Rain = 0
KPD3 091657Z 34006KT 06/M05 A3039 RMK A01 T00561052  RH  046%=      5-min Rain = 0
KPD3 091658Z 36007KT 06/M06 A3039 RMK A01 T00561055  RH  045%=      5-min Rain = 0
KPD3 091659Z 35005KT 06/M05 A3039 RMK A01 T00561054  RH  045%=      5-min Rain = 0
KPD3 091700Z 00005KT 06/M06 A3039 RMK A01 T00551055  RH  045%=      5-min Rain = 0
KPD3 091701Z 35005KT 06/M06 A3039 RMK A01 T00551055  RH  045%=      5-min Rain = 0
KPD3 091702Z 36006KT 06/M05 A3039 RMK A01 T00561053  RH  045%=      5-min Rain = 0
KPD3 091703Z 36006KT 06/M05 A3039 RMK A01 T00581050  RH  046%=      5-min Rain = 0
KPD3 091704Z 34006KT 06/M05 A3039 RMK A01 T00591050  RH  045%=      5-min Rain = 0
KPD3 091705Z 35005KT 06/M06 A3039 RMK A01 T00591055  RH  044%=      5-min Rain = 0
KPD3 091706Z 02005KT 06/M05 A3039 RMK A01 T00581054  RH  044%=      5-min Rain = 0
KPD3 091707Z 05004KT 06/M05 A3039 RMK A01 T00581053  RH  045%=      5-min Rain = 0
KPD3 091708Z 06005KT 06/M05 A3039 RMK A01 T00591053  RH  044%=      5-min Rain = 0
KPD3 091709Z 02004KT 06/M05 A3039 RMK A01 T00601050  RH  045%=      5-min Rain = 0
KPD3 091710Z 02004KT 06/M05 A3039 RMK A01 T00621051  RH  044%=      5-min Rain = 0
KPD3 091711Z 01006KT 06/M05 A3039 RMK A01 T00621050  RH  044%=      5-min Rain = 0
KPD3 091712Z 02006KT 06/M05 A3039 RMK A01 T00631052  RH  044%=      5-min Rain = 0
KPD3 091713Z 03006KT 06/M05 A3039 RMK A01 T00621052  RH  044%=      5-min Rain = 0
KPD3 091714Z 03005KT 06/M06 A3039 RMK A01 T00621056  RH  043%=      5-min Rain = 0
KPD3 091715Z 04007KT 06/M05 A3039 RMK A01 T00611053  RH  044%=      5-min Rain = 0
KPD3 091716Z 05005KT 06/M05 A3039 RMK A01 T00621053  RH  044%=      5-min Rain = 0
KPD3 091717Z 04006KT 06/M05 A3039 RMK A01 T00631050  RH  044%=      5-min Rain = 0
KPD3 091718Z 04006KT 06/M05 A3039 RMK A01 T00641050  RH  044%=      5-min Rain = 0
KPD3 091719Z 03006KT 07/M05 A3039 RMK A01 T00651050  RH  044%=      5-min Rain = 0
KPD3 091720Z 04007KT 07/M05 A3039 RMK A01 T00661048  RH  044%=      5-min Rain = 0
KPD3 091721Z 03007KT 07/M05 A3039 RMK A01 T00661051  RH  043%=      5-min Rain = 0
KPD3 091722Z 05006KT 07/M05 A3039 RMK A01 T00651052  RH  043%=      5-min Rain = 0
KPD3 091723Z 05006KT 06/M05 A3039 RMK A01 T00641053  RH  043%=      5-min Rain = 0
KPD3 091724Z 04004KT 06/M05 A3039 RMK A01 T00641053  RH  043%=      5-min Rain = 0
KPD3 091725Z 05005KT 06/M05 A3039 RMK A01 T00641050  RH  044%=      5-min Rain = 0
KPD3 091726Z 02005KT 07/M05 A3039 RMK A01 T00651054  RH  042%=      5-min Rain = 0
KPD3 091727Z 35004KT 06/M05 A3039 RMK A01 T00641054  RH  043%=      5-min Rain = 0
KPD3 091728Z 35005KT 06/M05 A3039 RMK A01 T00641054  RH  043%=      5-min Rain = 0
KPD3 091729Z 00006KT 07/M05 A3039 RMK A01 T00651048  RH  044%=      5-min Rain = 0
KPD3 091730Z 01004KT 07/M05 A3039 RMK A01 T00661052  RH  043%=      5-min Rain = 0
KPD3 091731Z 35005KT 07/M05 A3039 RMK A01 T00651052  RH  043%=      5-min Rain = 0
KPD3 091732Z 36004KT 07/M05 A3039 RMK A01 T00651052  RH  043%=      5-min Rain = 0
KPD3 091733Z 34003KT 07/M05 A3039 RMK A01 T00651053  RH  043%=      5-min Rain = 0
KPD3 091734Z 00003KT 07/M05 A3039 RMK A01 T00651054  RH  042%=      5-min Rain = 0
KPD3 091735Z 34000KT 06/M06 A3039 RMK A01 T00641057  RH  042%=      5-min Rain = 0
KPD3 091736Z 07001KT 06/M06 A3039 RMK A01 T00631055  RH  043%=      5-min Rain = 0
KPD3 091737Z 05002KT 07/M05 A3039 RMK A01 T00651051  RH  043%=      5-min Rain = 0
KPD3 091738Z 05005KT 07/M05 A3038 RMK A01 T00681048  RH  044%=      5-min Rain = 0
KPD3 091739Z 07004KT 07/M05 A3038 RMK A01 T00691051  RH  042%=      5-min Rain = 0
KPD3 091740Z 06003KT 07/M06 A3038 RMK A01 T00671055  RH  041%=      5-min Rain = 0
KPD3 091741Z 05005KT 07/M05 A3038 RMK A01 T00671050  RH  043%=      5-min Rain = 0
KPD3 091742Z 06005KT 07/M05 A3038 RMK A01 T00711046  RH  043%=      5-min Rain = 0
KPD3 091743Z 07004KT 07/M05 A3038 RMK A01 T00711051  RH  041%=      5-min Rain = 0
KPD3 091744Z 08003KT 07/M05 A3038 RMK A01 T00691054  RH  041%=      5-min Rain = 0
KPD3 091745Z 10002KT 07/M06 A3038 RMK A01 T00661057  RH  041%=      5-min Rain = 0
KPD3 091746Z 12001KT 07/M06 A3038 RMK A01 T00661056  RH  041%=      5-min Rain = 0
KPD3 091747Z 08001KT 07/M06 A3038 RMK A01 T00661056  RH  041%=      5-min Rain = 0
KPD3 091748Z 07002KT 07/M06 A3038 RMK A01 T00681055  RH  041%=      5-min Rain = 0
KPD3 091749Z 07002KT 07/M05 A3038 RMK A01 T00701049  RH  042%=      5-min Rain = 0
KPD3 091750Z 06002KT 07/M05 A3038 RMK A01 T00721050  RH  041%=      5-min Rain = 0
KPD3 091751Z 05004KT 07/M05 A3038 RMK A01 T00721049  RH  042%=      5-min Rain = 0
KPD3 091752Z 06005KT 07/M05 A3038 RMK A01 T00731050  RH  041%=      5-min Rain = 0
KPD3 091753Z 07003KT 07/M05 A3038 RMK A01 T00731050  RH  041%=      5-min Rain = 0
KPD3 091754Z 03003KT 07/M05 A3038 RMK A01 T00731050  RH  041%=      5-min Rain = 0
KPD3 091755Z 03005KT 07/M05 A3038 RMK A01 T00731050  RH  041%=      5-min Rain = 0
KPD3 091756Z 04002KT 07/M05 A3038 RMK A01 T00721052  RH  041%=      5-min Rain = 0
KPD3 091757Z 09001KT 07/M06 A3038 RMK A01 T00701055  RH  040%=      5-min Rain = 0
KPD3 091758Z 15001KT 07/M06 A3038 RMK A01 T00701055  RH  041%=      5-min Rain = 0
KPD3 091759Z 05004KT 07/M05 A3038 RMK A01 T00711052  RH  041%=      5-min Rain = 0
KPD3 091800Z 04007KT 07/M05 A3037 RMK A01 T00721050  RH  041%=      5-min Rain = 0
KPD3 091801Z 05004KT 07/M05 A3037 RMK A01 T00721052  RH  041%=      5-min Rain = 0
KPD3 091802Z 09004KT 07/M05 A3037 RMK A01 T00731048  RH  042%=      5-min Rain = 0
KPD3 091803Z 08005KT 07/M05 A3037 RMK A01 T00741051  RH  041%=      5-min Rain = 0
KPD3 091804Z 11003KT 07/M05 A3037 RMK A01 T00731053  RH  040%=      5-min Rain = 0
KPD3 091805Z 11002KT 07/M05 A3037 RMK A01 T00721053  RH  041%=      5-min Rain = 0
KPD3 091806Z 09002KT 07/M05 A3037 RMK A01 T00731052  RH  041%=      5-min Rain = 0
KPD3 091807Z 04003KT 08/M05 A3037 RMK A01 T00751050  RH  041%=      5-min Rain = 0
KPD3 091808Z 05006KT 08/M05 A3037 RMK A01 T00751050  RH  041%=      5-min Rain = 0
KPD3 091809Z 06005KT 08/M05 A3037 RMK A01 T00751051  RH  040%=      5-min Rain = 0
KPD3 091810Z 03003KT 08/M05 A3037 RMK A01 T00751049  RH  041%=      5-min Rain = 0
KPD3 091811Z 03003KT 08/M05 A3037 RMK A01 T00761048  RH  041%=      5-min Rain = 0
KPD3 091812Z 35003KT 08/M05 A3037 RMK A01 T00771050  RH  040%=      5-min Rain = 0
KPD3 091813Z 33002KT 08/M05 A3037 RMK A01 T00751053  RH  040%=      5-min Rain = 0
KPD3 091814Z 34003KT 08/M05 A3037 RMK A01 T00751051  RH  040%=      5-min Rain = 0
KPD3 091815Z 03003KT 08/M05 A3037 RMK A01 T00751052  RH  040%=      5-min Rain = 0
KPD3 091816Z 06005KT 08/M05 A3037 RMK A01 T00751050  RH  041%=      5-min Rain = 0
KPD3 091817Z 08005KT 08/M05 A3037 RMK A01 T00761048  RH  041%=      5-min Rain = 0
KPD3 091818Z 07005KT 08/M05 A3037 RMK A01 T00751051  RH  041%=      5-min Rain = 0
KPD3 091819Z 04007KT 08/M05 A3037 RMK A01 T00751050  RH  041%=      5-min Rain = 0
KPD3 091820Z 04006KT 08/M05 A3037 RMK A01 T00751050  RH  041%=      5-min Rain = 0
KPD3 091821Z 05006KT 07/M05 A3037 RMK A01 T00741051  RH  041%=      5-min Rain = 0
KPD3 091822Z 02006KT 07/M05 A3037 RMK A01 T00741049  RH  041%=      5-min Rain = 0
KPD3 091823Z 01005KT 08/M05 A3037 RMK A01 T00751049  RH  041%=      5-min Rain = 0
KPD3 091824Z 02007KT 08/M05 A3037 RMK A01 T00771046  RH  041%=      5-min Rain = 0
KPD3 091825Z 02006KT 08/M05 A3037 RMK A01 T00771048  RH  041%=      5-min Rain = 0
KPD3 091826Z 02004KT 08/M05 A3037 RMK A01 T00761051  RH  040%=      5-min Rain = 0
KPD3 091827Z 01002KT 08/M05 A3036 RMK A01 T00761052  RH  040%=      5-min Rain = 0
KPD3 091828Z 03002KT 08/M05 A3036 RMK A01 T00761051  RH  040%=      5-min Rain = 0
KPD3 091829Z 34002KT 08/M05 A3036 RMK A01 T00761052  RH  040%=      5-min Rain = 0
KPD3 091830Z 04003KT 08/M05 A3036 RMK A01 T00771052  RH  040%=      5-min Rain = 0
KPD3 091831Z 06003KT 08/M05 A3036 RMK A01 T00781050  RH  040%=      5-min Rain = 0
KPD3 091832Z 00005KT 08/M05 A3036 RMK A01 T00781050  RH  040%=      5-min Rain = 0
KPD3 091833Z 34005KT 08/M05 A3036 RMK A01 T00801049  RH  040%=      5-min Rain = 0
KPD3 091834Z 35003KT 08/M05 A3036 RMK A01 T00791052  RH  039%=      5-min Rain = 0
KPD3 091835Z 32001KT 08/M05 A3036 RMK A01 T00781052  RH  039%=      5-min Rain = 0
KPD3 091836Z 32001KT 08/M05 A3036 RMK A01 T00781051  RH  039%=      5-min Rain = 0
KPD3 091837Z 35001KT 08/M05 A3035 RMK A01 T00791050  RH  039%=      5-min Rain = 0
KPD3 091838Z 04002KT 08/M05 A3035 RMK A01 T00821048  RH  039%=      5-min Rain = 0
KPD3 091839Z 05005KT 08/M05 A3035 RMK A01 T00831049  RH  039%=      5-min Rain = 0
KPD3 091840Z 03005KT 08/M05 A3035 RMK A01 T00831047  RH  039%=      5-min Rain = 0
KPD3 091841Z 04004KT 08/M05 A3035 RMK A01 T00841049  RH  039%=      5-min Rain = 0
KPD3 091842Z 03004KT 08/M05 A3035 RMK A01 T00831049  RH  039%=      5-min Rain = 0
KPD3 091843Z 01003KT 08/M05 A3035 RMK A01 T00841048  RH  039%=      5-min Rain = 0
KPD3 091844Z 01002KT 08/M05 A3035 RMK A01 T00841051  RH  038%=      5-min Rain = 0
KPD3 091845Z 35005KT 08/M05 A3035 RMK A01 T00831050  RH  038%=      5-min Rain = 0
KPD3 091846Z 34004KT 08/M05 A3035 RMK A01 T00811054  RH  038%=      5-min Rain = 0
KPD3 091847Z 32002KT 08/M05 A3035 RMK A01 T00791053  RH  039%=      5-min Rain = 0
KPD3 091848Z 29001KT 08/M05 A3035 RMK A01 T00791052  RH  039%=      5-min Rain = 0
KPD3 091849Z 28001KT 08/M05 A3035 RMK A01 T00801051  RH  039%=      5-min Rain = 0
KPD3 091850Z 34001KT 08/M05 A3035 RMK A01 T00801052  RH  039%=      5-min Rain = 0
KPD3 091851Z 04003KT 08/M05 A3035 RMK A01 T00811052  RH  038%=      5-min Rain = 0
KPD3 091852Z 04003KT 08/M05 A3035 RMK A01 T00811053  RH  038%=      5-min Rain = 0
KPD3 091853Z 06001KT 08/M05 A3035 RMK A01 T00811053  RH  038%=      5-min Rain = 0
KPD3 091854Z 15001KT 08/M05 A3035 RMK A01 T00821054  RH  038%=      5-min Rain = 0
KPD3 091855Z 00003KT 08/M05 A3035 RMK A01 T00841052  RH  038%=      5-min Rain = 0
KPD3 091856Z 03003KT 09/M05 A3035 RMK A01 T00851052  RH  038%=      5-min Rain = 0
KPD3 091857Z 02002KT 08/M05 A3035 RMK A01 T00841053  RH  037%=      5-min Rain = 0
KPD3 091858Z 01003KT 08/M05 A3035 RMK A01 T00841054  RH  037%=      5-min Rain = 0
KPD3 091859Z 34002KT 08/M06 A3035 RMK A01 T00831055  RH  037%=      5-min Rain = 0
KPD3 091900Z 31001KT 08/M05 A3035 RMK A01 T00831052  RH  038%=      5-min Rain = 0
KPD3 091901Z 29000KT 08/M05 A3035 RMK A01 T00841051  RH  038%=      5-min Rain = 0
KPD3 091902Z 13001KT 09/M05 A3035 RMK A01 T00871049  RH  038%=      5-min Rain = 0
KPD3 091903Z 15001KT 09/M05 A3035 RMK A01 T00901046  RH  038%=      5-min Rain = 0
KPD3 091904Z 01001KT 09/M05 A3035 RMK A01 T00921048  RH  037%=      5-min Rain = 0
KPD3 091905Z 34002KT 09/M05 A3035 RMK A01 T00931047  RH  037%=      5-min Rain = 0
KPD3 091906Z 34004KT 09/M05 A3034 RMK A01 T00931047  RH  037%=      5-min Rain = 0
KPD3 091907Z 35003KT 09/M05 A3034 RMK A01 T00921049  RH  037%=      5-min Rain = 0
KPD3 091908Z 32003KT 09/M05 A3034 RMK A01 T00901049  RH  037%=      5-min Rain = 0
KPD3 091909Z 29003KT 09/M05 A3034 RMK A01 T00901048  RH  037%=      5-min Rain = 0
KPD3 091910Z 27002KT 09/M05 A3034 RMK A01 T00891051  RH  037%=      5-min Rain = 0
KPD3 091911Z 30003KT 09/M05 A3034 RMK A01 T00881050  RH  037%=      5-min Rain = 0
KPD3 091912Z 01005KT 09/M05 A3034 RMK A01 T00881049  RH  038%=      5-min Rain = 0
KPD3 091913Z 01004KT 09/M05 A3034 RMK A01 T00881048  RH  038%=      5-min Rain = 0
KPD3 091914Z 35002KT 09/M05 A3034 RMK A01 T00881050  RH  037%=      5-min Rain = 0
KPD3 091915Z 36001KT 09/M05 A3034 RMK A01 T00881049  RH  037%=      5-min Rain = 0
KPD3 091916Z 35002KT 09/M05 A3034 RMK A01 T00891050  RH  037%=      5-min Rain = 0
KPD3 091917Z 29001KT 09/M05 A3034 RMK A01 T00881052  RH  037%=      5-min Rain = 0
KPD3 091918Z 24002KT 09/M05 A3034 RMK A01 T00881052  RH  037%=      5-min Rain = 0
KPD3 091919Z 36001KT 09/M05 A3034 RMK A01 T00881050  RH  037%=      5-min Rain = 0
KPD3 091920Z 02005KT 09/M05 A3034 RMK A01 T00901046  RH  038%=      5-min Rain = 0
KPD3 091921Z 02004KT 09/M05 A3034 RMK A01 T00911048  RH  037%=      5-min Rain = 0
KPD3 091922Z 03002KT 09/M05 A3034 RMK A01 T00901051  RH  037%=      5-min Rain = 0
KPD3 091923Z 04002KT 09/M05 A3034 RMK A01 T00871052  RH  037%=      5-min Rain = 0
KPD3 091924Z 35003KT 09/M05 A3034 RMK A01 T00871050  RH  037%=      5-min Rain = 0
KPD3 091925Z 34002KT 09/M05 A3034 RMK A01 T00871049  RH  038%=      5-min Rain = 0
KPD3 091926Z 27001KT 09/M05 A3034 RMK A01 T00881051  RH  037%=      5-min Rain = 0
KPD3 091927Z 26003KT 09/M05 A3034 RMK A01 T00891051  RH  037%=      5-min Rain = 0
KPD3 091928Z 24002KT 09/M05 A3034 RMK A01 T00901049  RH  037%=      5-min Rain = 0
KPD3 091929Z 21002KT 09/M05 A3034 RMK A01 T00911049  RH  037%=      5-min Rain = 0
KPD3 091930Z 21003KT 09/M05 A3034 RMK A01 T00911050  RH  036%=      5-min Rain = 0
KPD3 091931Z 30001KT 09/M05 A3034 RMK A01 T00921048  RH  037%=      5-min Rain = 0
KPD3 091932Z 01003KT 09/M05 A3033 RMK A01 T00931047  RH  037%=      5-min Rain = 0
KPD3 091933Z 01003KT 09/M05 A3033 RMK A01 T00941048  RH  036%=      5-min Rain = 0
KPD3 091934Z 35003KT 09/M05 A3033 RMK A01 T00941048  RH  036%=      5-min Rain = 0
KPD3 091935Z 34000KT 09/M05 A3033 RMK A01 T00921050  RH  036%=      5-min Rain = 0
KPD3 091936Z 01002KT 09/M05 A3033 RMK A01 T00931048  RH  037%=      5-min Rain = 0
KPD3 091937Z 01002KT 09/M05 A3033 RMK A01 T00941049  RH  036%=      5-min Rain = 0
KPD3 091938Z 35003KT 09/M05 A3033 RMK A01 T00941049  RH  036%=      5-min Rain = 0
KPD3 091939Z 35002KT 09/M05 A3034 RMK A01 T00931050  RH  036%=      5-min Rain = 0
KPD3 091940Z 33001KT 09/M05 A3034 RMK A01 T00921050  RH  036%=      5-min Rain = 0
KPD3 091941Z 05001KT 09/M05 A3034 RMK A01 T00931047  RH  037%=      5-min Rain = 0
KPD3 091942Z 11001KT 09/M05 A3033 RMK A01 T00941048  RH  036%=      5-min Rain = 0
KPD3 091943Z 21002KT 10/M05 A3033 RMK A01 T00951048  RH  036%=      5-min Rain = 0
KPD3 091944Z 20004KT 09/M05 A3033 RMK A01 T00941051  RH  036%=      5-min Rain = 0
KPD3 091945Z 19004KT 09/M05 A3033 RMK A01 T00921050  RH  036%=      5-min Rain = 0
KPD3 091946Z 22004KT 09/M05 A3033 RMK A01 T00931047  RH  037%=      5-min Rain = 0
KPD3 091947Z 21002KT 10/M05 A3033 RMK A01 T00961045  RH  037%=      5-min Rain = 0
KPD3 091948Z 29002KT 10/M05 A3033 RMK A01 T00981046  RH  036%=      5-min Rain = 0
KPD3 091949Z 27004KT 10/M05 A3033 RMK A01 T00981047  RH  036%=      5-min Rain = 0
KPD3 091950Z 30002KT 10/M05 A3033 RMK A01 T00971049  RH  035%=      5-min Rain = 0
KPD3 091951Z 26003KT 10/M05 A3033 RMK A01 T00961048  RH  036%=      5-min Rain = 0
KPD3 091952Z 24004KT 10/M05 A3033 RMK A01 T00961047  RH  036%=      5-min Rain = 0
KPD3 091953Z 28001KT 10/M05 A3033 RMK A01 T00961050  RH  036%=      5-min Rain = 0
KPD3 091954Z 35002KT 10/M05 A3033 RMK A01 T00961049  RH  036%=      5-min Rain = 0
KPD3 091955Z 34002KT 10/M05 A3033 RMK A01 T00961047  RH  036%=      5-min Rain = 0
KPD3 091956Z 31001KT 10/M05 A3033 RMK A01 T00971049  RH  035%=      5-min Rain = 0
KPD3 091957Z 28002KT 10/M05 A3033 RMK A01 T00961050  RH  035%=      5-min Rain = 0
KPD3 091958Z 25001KT 10/M05 A3032 RMK A01 T00951051  RH  035%=      5-min Rain = 0
KPD3 091959Z 26002KT 10/M05 A3032 RMK A01 T00951049  RH  036%=      5-min Rain = 0
KPD3 092000Z 27002KT 10/M05 A3032 RMK A01 T00961051  RH  035%=      5-min Rain = 0
KPD3 092001Z 25001KT 10/M05 A3032 RMK A01 T00961050  RH  035%=      5-min Rain = 0
KPD3 092002Z 29000KT 10/M05 A3032 RMK A01 T00961050  RH  035%=      5-min Rain = 0
KPD3 092003Z 27000KT 10/M05 A3033 RMK A01 T00971050  RH  035%=      5-min Rain = 0
KPD3 092004Z 28000KT 10/M05 A3033 RMK A01 T00981050  RH  035%=      5-min Rain = 0
KPD3 092005Z 09000KT 10/M05 A3033 RMK A01 T00991049  RH  035%=      5-min Rain = 0
KPD3 092006Z 14001KT 10/M05 A3033 RMK A01 T01001049  RH  035%=      5-min Rain = 0
KPD3 092007Z 12001KT 10/M05 A3033 RMK A01 T01011048  RH  035%=      5-min Rain = 0
KPD3 092008Z 13001KT 10/M05 A3033 RMK A01 T01021049  RH  034%=      5-min Rain = 0
KPD3 092009Z 23000KT 10/M05 A3032 RMK A01 T01021049  RH  034%=      5-min Rain = 0
KPD3 092010Z 13002KT 10/M05 A3032 RMK A01 T01041045  RH  035%=      5-min Rain = 0
KPD3 092011Z 13001KT 11/M05 A3032 RMK A01 T01061046  RH  034%=      5-min Rain = 0
KPD3 092012Z 18000KT 11/M05 A3032 RMK A01 T01051049  RH  033%=      5-min Rain = 0
KPD3 092013Z 22000KT 11/M05 A3032 RMK A01 T01061048  RH  034%=      5-min Rain = 0
KPD3 092014Z 23000KT 11/M05 A3032 RMK A01 T01061050  RH  033%=      5-min Rain = 0
KPD3 092015Z 27002KT 11/M05 A3032 RMK A01 T01061049  RH  033%=      5-min Rain = 0
KPD3 092016Z 26002KT 11/M05 A3032 RMK A01 T01061046  RH  034%=      5-min Rain = 0
KPD3 092017Z 27001KT 11/M05 A3032 RMK A01 T01061045  RH  034%=      5-min Rain = 0
KPD3 092018Z 34003KT 11/M04 A3032 RMK A01 T01081044  RH  034%=      5-min Rain = 0
KPD3 092019Z 33004KT 11/M05 A3032 RMK A01 T01061048  RH  033%=      5-min Rain = 0
KPD3 092020Z 30003KT 10/M05 A3032 RMK A01 T01011052  RH  034%=      5-min Rain = 0
KPD3 092021Z 29002KT 10/M05 A3032 RMK A01 T00991051  RH  034%=      5-min Rain = 0
KPD3 092022Z 30001KT 10/M05 A3032 RMK A01 T00981051  RH  035%=      5-min Rain = 0
KPD3 092023Z 28002KT 10/M05 A3032 RMK A01 T01001048  RH  035%=      5-min Rain = 0
KPD3 092024Z 31002KT 10/M05 A3032 RMK A01 T01021047  RH  035%=      5-min Rain = 0
KPD3 092025Z 31002KT 10/M05 A3032 RMK A01 T01031048  RH  034%=      5-min Rain = 0
KPD3 092026Z 30002KT 10/M05 A3032 RMK A01 T01021049  RH  034%=      5-min Rain = 0
KPD3 092027Z 32003KT 10/M05 A3032 RMK A01 T01021045  RH  035%=      5-min Rain = 0
KPD3 092028Z 33003KT 10/M05 A3032 RMK A01 T01031049  RH  034%=      5-min Rain = 0
KPD3 092029Z 04002KT 10/M05 A3032 RMK A01 T01011047  RH  035%=      5-min Rain = 0
KPD3 092030Z 06003KT 10/M05 A3032 RMK A01 T01021047  RH  035%=      5-min Rain = 0
KPD3 092031Z 07003KT 10/M05 A3032 RMK A01 T01021048  RH  035%=      5-min Rain = 0
KPD3 092032Z 10001KT 10/M05 A3032 RMK A01 T01021048  RH  035%=      5-min Rain = 0
KPD3 092033Z 09004KT 10/M05 A3032 RMK A01 T01011049  RH  034%=      5-min Rain = 0
KPD3 092034Z 10003KT 10/M05 A3032 RMK A01 T01011048  RH  035%=      5-min Rain = 0
KPD3 092035Z 13002KT 10/M05 A3032 RMK A01 T01011048  RH  035%=      5-min Rain = 0
KPD3 092036Z 10003KT 10/M05 A3032 RMK A01 T01011048  RH  035%=      5-min Rain = 0
KPD3 092037Z 09003KT 10/M05 A3032 RMK A01 T01011049  RH  035%=      5-min Rain = 0
KPD3 092038Z 05003KT 10/M05 A3032 RMK A01 T01001047  RH  035%=      5-min Rain = 0
KPD3 092039Z 07002KT 10/M05 A3032 RMK A01 T01011049  RH  034%=      5-min Rain = 0
KPD3 092040Z 10004KT 10/M05 A3032 RMK A01 T01011048  RH  035%=      5-min Rain = 0
KPD3 092041Z 07004KT 10/M05 A3032 RMK A01 T01011046  RH  035%=      5-min Rain = 0
KPD3 092042Z 06002KT 10/M04 A3032 RMK A01 T01031044  RH  035%=      5-min Rain = 0
KPD3 092043Z 11003KT 11/M05 A3032 RMK A01 T01051045  RH  035%=      5-min Rain = 0
KPD3 092044Z 13005KT 11/M05 A3032 RMK A01 T01061045  RH  034%=      5-min Rain = 0
KPD3 092045Z 11006KT 11/M05 A3032 RMK A01 T01061045  RH  034%=      5-min Rain = 0
KPD3 092046Z 13004KT 10/M05 A3032 RMK A01 T01041049  RH  034%=      5-min Rain = 0
KPD3 092047Z 15004KT 10/M05 A3032 RMK A01 T01031050  RH  034%=      5-min Rain = 0
KPD3 092048Z 14004KT 10/M05 A3032 RMK A01 T01021049  RH  034%=      5-min Rain = 0
KPD3 092049Z 13003KT 10/M05 A3032 RMK A01 T01021048  RH  034%=      5-min Rain = 0
KPD3 092050Z 17004KT 10/M05 A3032 RMK A01 T01031049  RH  034%=      5-min Rain = 0
KPD3 092051Z 16005KT 10/M05 A3032 RMK A01 T01031048  RH  034%=      5-min Rain = 0
KPD3 092052Z 14006KT 11/M05 A3031 RMK A01 T01051045  RH  035%=      5-min Rain = 0
KPD3 092053Z 15007KT 11/M05 A3031 RMK A01 T01061046  RH  034%=      5-min Rain = 0
KPD3 092054Z 17005KT 10/M05 A3032 RMK A01 T01041050  RH  033%=      5-min Rain = 0
KPD3 092055Z 12005KT 10/M05 A3032 RMK A01 T01031047  RH  034%=      5-min Rain = 0
KPD3 092056Z 11005KT 10/M05 A3032 RMK A01 T01041047  RH  034%=      5-min Rain = 0
KPD3 092057Z 10003KT 10/M05 A3032 RMK A01 T01041048  RH  034%=      5-min Rain = 0
KPD3 092058Z 11001KT 10/M05 A3032 RMK A01 T01031050  RH  034%=      5-min Rain = 0
KPD3 092059Z 21000KT 10/M05 A3032 RMK A01 T01021050  RH  034%=      5-min Rain = 0
KPD3 092100Z 00000KT 10/M05 A3032 RMK A01 T01041047  RH  034%=      5-min Rain = 0
KPD3 092101Z 04001KT 11/M05 A3032 RMK A01 T01061046  RH  034%=      5-min Rain = 0
KPD3 092102Z 04002KT 11/M05 A3032 RMK A01 T01071048  RH  033%=      5-min Rain = 0
KPD3 092103Z 04001KT 11/M05 A3032 RMK A01 T01061049  RH  033%=      5-min Rain = 0
KPD3 092104Z 04001KT 11/M05 A3032 RMK A01 T01051049  RH  034%=      5-min Rain = 0
KPD3 092105Z 35001KT 11/M05 A3032 RMK A01 T01061047  RH  034%=      5-min Rain = 0
KPD3 092106Z 33001KT 11/M05 A3032 RMK A01 T01071045  RH  034%=      5-min Rain = 0
KPD3 092107Z 01001KT 11/M05 A3032 RMK A01 T01091046  RH  033%=      5-min Rain = 0
KPD3 092108Z 06001KT 11/M05 A3032 RMK A01 T01091047  RH  033%=      5-min Rain = 0
KPD3 092109Z 13002KT 11/M05 A3032 RMK A01 T01091048  RH  033%=      5-min Rain = 0
KPD3 092110Z 16001KT 11/M05 A3032 RMK A01 T01081048  RH  033%=      5-min Rain = 0
KPD3 092111Z 06001KT 11/M05 A3032 RMK A01 T01081046  RH  034%=      5-min Rain = 0
KPD3 092112Z 04001KT 11/M05 A3032 RMK A01 T01091045  RH  033%=      5-min Rain = 0
KPD3 092113Z 35001KT 11/M05 A3032 RMK A01 T01101046  RH  033%=      5-min Rain = 0
KPD3 092114Z 28003KT 11/M04 A3032 RMK A01 T01101042  RH  034%=      5-min Rain = 0
KPD3 092115Z 26003KT 11/M05 A3032 RMK A01 T01111046  RH  033%=      5-min Rain = 0
KPD3 092116Z 27002KT 11/M05 A3032 RMK A01 T01091048  RH  033%=      5-min Rain = 0
KPD3 092117Z 31001KT 11/M05 A3032 RMK A01 T01091047  RH  033%=      5-min Rain = 0
KPD3 092118Z 31003KT 11/M05 A3032 RMK A01 T01091046  RH  033%=      5-min Rain = 0
KPD3 092119Z 30002KT 11/M05 A3032 RMK A01 T01091048  RH  033%=      5-min Rain = 0
KPD3 092120Z 34002KT 11/M05 A3032 RMK A01 T01081048  RH  033%=      5-min Rain = 0
KPD3 092121Z 35003KT 11/M05 A3032 RMK A01 T01081048  RH  033%=      5-min Rain = 0
KPD3 092122Z 01001KT 11/M05 A3032 RMK A01 T01061050  RH  033%=      5-min Rain = 0
KPD3 092123Z 03001KT 11/M05 A3032 RMK A01 T01061048  RH  033%=      5-min Rain = 0
KPD3 092124Z 28001KT 11/M05 A3032 RMK A01 T01091047  RH  033%=      5-min Rain = 0
KPD3 092125Z 22001KT 11/M05 A3032 RMK A01 T01111046  RH  033%=      5-min Rain = 0
KPD3 092126Z 17002KT 11/M05 A3032 RMK A01 T01121049  RH  032%=      5-min Rain = 0
KPD3 092127Z 12001KT 11/M05 A3032 RMK A01 T01121049  RH  032%=      5-min Rain = 0
KPD3 092128Z 33002KT 11/M05 A3032 RMK A01 T01121048  RH  032%=      5-min Rain = 0
KPD3 092129Z 32005KT 11/M05 A3032 RMK A01 T01111048  RH  032%=      5-min Rain = 0
KPD3 092130Z 32005KT 11/M05 A3032 RMK A01 T01101048  RH  033%=      5-min Rain = 0
KPD3 092131Z 30005KT 11/M05 A3032 RMK A01 T01081048  RH  033%=      5-min Rain = 0
KPD3 092132Z 30005KT 11/M05 A3032 RMK A01 T01081048  RH  033%=      5-min Rain = 0
KPD3 092133Z 30006KT 11/M05 A3032 RMK A01 T01081047  RH  033%=      5-min Rain = 0
KPD3 092134Z 30004KT 11/M05 A3032 RMK A01 T01081048  RH  033%=      5-min Rain = 0
KPD3 092135Z 33005KT 11/M05 A3032 RMK A01 T01071049  RH  033%=      5-min Rain = 0
KPD3 092136Z 33004KT 11/M05 A3032 RMK A01 T01061050  RH  033%=      5-min Rain = 0
KPD3 092137Z 33003KT 11/M05 A3032 RMK A01 T01051049  RH  033%=      5-min Rain = 0
KPD3 092138Z 36002KT 11/M05 A3032 RMK A01 T01051049  RH  033%=      5-min Rain = 0
KPD3 092139Z 34000KT 11/M05 A3032 RMK A01 T01051049  RH  033%=      5-min Rain = 0
KPD3 092140Z 02001KT 11/M05 A3032 RMK A01 T01071048  RH  033%=      5-min Rain = 0
KPD3 092141Z 33002KT 11/M05 A3032 RMK A01 T01081047  RH  033%=      5-min Rain = 0
KPD3 092142Z 30004KT 11/M05 A3032 RMK A01 T01091047  RH  033%=      5-min Rain = 0
KPD3 092143Z 29003KT 11/M05 A3032 RMK A01 T01091046  RH  033%=      5-min Rain = 0
KPD3 092144Z 30002KT 11/M05 A3032 RMK A01 T01081049  RH  033%=      5-min Rain = 0
KPD3 092145Z 30004KT 11/M05 A3032 RMK A01 T01081049  RH  033%=      5-min Rain = 0
KPD3 092146Z 30005KT 11/M05 A3032 RMK A01 T01081048  RH  033%=      5-min Rain = 0
KPD3 092147Z 30006KT 11/M05 A3032 RMK A01 T01081046  RH  034%=      5-min Rain = 0
KPD3 092148Z 34004KT 11/M04 A3032 RMK A01 T01091044  RH  034%=      5-min Rain = 0
KPD3 092149Z 35006KT 11/M04 A3032 RMK A01 T01101043  RH  034%=      5-min Rain = 0
KPD3 092150Z 35006KT 11/M04 A3032 RMK A01 T01101044  RH  034%=      5-min Rain = 0
KPD3 092151Z 00005KT 11/M05 A3032 RMK A01 T01091047  RH  033%=      5-min Rain = 0
KPD3 092152Z 01003KT 11/M05 A3032 RMK A01 T01081047  RH  033%=      5-min Rain = 0
KPD3 092153Z 34003KT 11/M05 A3032 RMK A01 T01071048  RH  033%=      5-min Rain = 0
KPD3 092154Z 34004KT 11/M05 A3032 RMK A01 T01071047  RH  033%=      5-min Rain = 0
KPD3 092155Z 34004KT 11/M05 A3032 RMK A01 T01071049  RH  033%=      5-min Rain = 0
KPD3 092156Z 32001KT 11/M05 A3032 RMK A01 T01061049  RH  033%=      5-min Rain = 0
KPD3 092157Z 00001KT 11/M05 A3032 RMK A01 T01061049  RH  033%=      5-min Rain = 0
KPD3 092158Z 33002KT 11/M05 A3032 RMK A01 T01071048  RH  033%=      5-min Rain = 0
KPD3 092159Z 31002KT 11/M05 A3032 RMK A01 T01071047  RH  033%=      5-min Rain = 0
KPD3 092200Z 35002KT 11/M05 A3032 RMK A01 T01071047  RH  033%=      5-min Rain = 0
KPD3 092201Z 33002KT 11/M05 A3032 RMK A01 T01081048  RH  033%=      5-min Rain = 0
KPD3 092202Z 00003KT 11/M05 A3032 RMK A01 T01071048  RH  033%=      5-min Rain = 0
KPD3 092203Z 01001KT 11/M05 A3032 RMK A01 T01071048  RH  033%=      5-min Rain = 0
KPD3 092204Z 02002KT 11/M05 A3032 RMK A01 T01071048  RH  033%=      5-min Rain = 0
KPD3 092205Z 36001KT 11/M05 A3032 RMK A01 T01071049  RH  033%=      5-min Rain = 0
KPD3 092206Z 31001KT 11/M05 A3032 RMK A01 T01071049  RH  033%=      5-min Rain = 0
KPD3 092207Z 27000KT 11/M05 A3032 RMK A01 T01071049  RH  033%=      5-min Rain = 0
KPD3 092208Z 32000KT 11/M05 A3032 RMK A01 T01091048  RH  033%=      5-min Rain = 0
KPD3 092209Z 34001KT 11/M05 A3032 RMK A01 T01121047  RH  033%=      5-min Rain = 0
KPD3 092210Z 31002KT 11/M05 A3032 RMK A01 T01131046  RH  032%=      5-min Rain = 0
KPD3 092211Z 34002KT 11/M05 A3032 RMK A01 T01131046  RH  032%=      5-min Rain = 0
KPD3 092212Z 31003KT 11/M04 A3032 RMK A01 T01131044  RH  033%=      5-min Rain = 0
KPD3 092213Z 30004KT 11/M05 A3032 RMK A01 T01121047  RH  032%=      5-min Rain = 0
KPD3 092214Z 30004KT 11/M05 A3032 RMK A01 T01111048  RH  033%=      5-min Rain = 0
KPD3 092215Z 30003KT 11/M05 A3032 RMK A01 T01091049  RH  033%=      5-min Rain = 0
KPD3 092216Z 30002KT 11/M05 A3032 RMK A01 T01081049  RH  033%=      5-min Rain = 0
KPD3 092217Z 31001KT 11/M05 A3032 RMK A01 T01081048  RH  033%=      5-min Rain = 0
KPD3 092218Z 34001KT 11/M05 A3032 RMK A01 T01081049  RH  033%=      5-min Rain = 0
KPD3 092219Z 33001KT 11/M05 A3031 RMK A01 T01091049  RH  033%=      5-min Rain = 0
KPD3 092220Z 33001KT 11/M05 A3031 RMK A01 T01091047  RH  033%=      5-min Rain = 0
KPD3 092221Z 32001KT 11/M05 A3031 RMK A01 T01101046  RH  033%=      5-min Rain = 0
KPD3 092222Z 32002KT 11/M05 A3031 RMK A01 T01111049  RH  032%=      5-min Rain = 0
KPD3 092223Z 31003KT 11/M05 A3031 RMK A01 T01101050  RH  032%=      5-min Rain = 0
KPD3 092224Z 27001KT 11/M05 A3031 RMK A01 T01091048  RH  033%=      5-min Rain = 0
KPD3 092225Z 24001KT 11/M05 A3031 RMK A01 T01091049  RH  033%=      5-min Rain = 0
KPD3 092226Z 22001KT 11/M05 A3031 RMK A01 T01091049  RH  033%=      5-min Rain = 0
KPD3 092227Z 28001KT 11/M05 A3031 RMK A01 T01101046  RH  033%=      5-min Rain = 0
KPD3 092228Z 33001KT 11/M05 A3031 RMK A01 T01121047  RH  033%=      5-min Rain = 0
KPD3 092229Z 35002KT 11/M05 A3031 RMK A01 T01121048  RH  032%=      5-min Rain = 0
KPD3 092230Z 35002KT 11/M05 A3031 RMK A01 T01111049  RH  032%=      5-min Rain = 0
KPD3 092231Z 34002KT 11/M05 A3031 RMK A01 T01091050  RH  032%=      5-min Rain = 0
KPD3 092232Z 34001KT 11/M05 A3031 RMK A01 T01081049  RH  033%=      5-min Rain = 0
KPD3 092233Z 34001KT 11/M05 A3031 RMK A01 T01081049  RH  033%=      5-min Rain = 0
KPD3 092234Z 00001KT 11/M05 A3031 RMK A01 T01081051  RH  032%=      5-min Rain = 0
KPD3 092235Z 03001KT 11/M05 A3031 RMK A01 T01081051  RH  032%=      5-min Rain = 0
KPD3 092236Z 02000KT 11/M05 A3031 RMK A01 T01081051  RH  032%=      5-min Rain = 0
KPD3 092237Z 35001KT 11/M05 A3031 RMK A01 T01081052  RH  032%=      5-min Rain = 0
KPD3 092238Z 34001KT 11/M05 A3031 RMK A01 T01081049  RH  033%=      5-min Rain = 0
KPD3 092239Z 32001KT 11/M05 A3031 RMK A01 T01081049  RH  033%=      5-min Rain = 0
KPD3 092240Z 31002KT 11/M05 A3031 RMK A01 T01081049  RH  033%=      5-min Rain = 0
KPD3 092241Z 31002KT 11/M05 A3032 RMK A01 T01071049  RH  033%=      5-min Rain = 0
KPD3 092242Z 31002KT 11/M05 A3032 RMK A01 T01071049  RH  033%=      5-min Rain = 0
KPD3 092243Z 31002KT 11/M05 A3032 RMK A01 T01071048  RH  033%=      5-min Rain = 0
KPD3 092244Z 29002KT 11/M05 A3032 RMK A01 T01061047  RH  034%=      5-min Rain = 0
KPD3 092245Z 29002KT 11/M05 A3032 RMK A01 T01061049  RH  033%=      5-min Rain = 0
KPD3 092246Z 29002KT 11/M05 A3032 RMK A01 T01061048  RH  034%=      5-min Rain = 0
KPD3 092247Z 29001KT 11/M05 A3032 RMK A01 T01061047  RH  034%=      5-min Rain = 0
KPD3 092248Z 29001KT 11/M05 A3032 RMK A01 T01061049  RH  033%=      5-min Rain = 0
KPD3 092249Z 30001KT 11/M05 A3032 RMK A01 T01071049  RH  033%=      5-min Rain = 0
KPD3 092250Z 28001KT 11/M05 A3032 RMK A01 T01071050  RH  033%=      5-min Rain = 0
KPD3 092251Z 28000KT 11/M05 A3032 RMK A01 T01081050  RH  033%=      5-min Rain = 0
KPD3 092252Z 00000KT 11/M05 A3032 RMK A01 T01091049  RH  033%=      5-min Rain = 0
KPD3 092253Z 00000KT 11/M05 A3032 RMK A01 T01101047  RH  033%=      5-min Rain = 0
KPD3 092254Z 00000KT 11/M05 A3032 RMK A01 T01111047  RH  033%=      5-min Rain = 0
KPD3 092255Z 00000KT 11/M05 A3032 RMK A01 T01121048  RH  032%=      5-min Rain = 0
KPD3 092256Z 00000KT 11/M05 A3032 RMK A01 T01121048  RH  032%=      5-min Rain = 0
KPD3 092257Z 07000KT 11/M05 A3032 RMK A01 T01121048  RH  032%=      5-min Rain = 0
KPD3 092258Z 09001KT 11/M05 A3032 RMK A01 T01111048  RH  032%=      5-min Rain = 0
KPD3 092259Z 07002KT 11/M05 A3032 RMK A01 T01101047  RH  033%=      5-min Rain = 0
KPD3 092300Z 07002KT 11/M05 A3032 RMK A01 T01081045  RH  034%=      5-min Rain = 0
KPD3 092301Z 08002KT 11/M04 A3032 RMK A01 T01061044  RH  034%=      5-min Rain = 0
KPD3 092302Z 08002KT 11/M04 A3032 RMK A01 T01051043  RH  035%=      5-min Rain = 0
KPD3 092303Z 08003KT 10/M04 A3032 RMK A01 T01041044  RH  035%=      5-min Rain = 0
KPD3 092304Z 08002KT 10/M05 A3032 RMK A01 T01031046  RH  035%=      5-min Rain = 0
KPD3 092305Z 08002KT 10/M04 A3032 RMK A01 T01021044  RH  035%=      5-min Rain = 0
KPD3 092306Z 09001KT 10/M04 A3032 RMK A01 T01011043  RH  036%=      5-min Rain = 0
KPD3 092307Z 11001KT 10/M04 A3032 RMK A01 T01011042  RH  036%=      5-min Rain = 0
KPD3 092308Z 12001KT 10/M04 A3032 RMK A01 T01001044  RH  036%=      5-min Rain = 0
KPD3 092309Z 13002KT 10/M04 A3032 RMK A01 T01001044  RH  036%=      5-min Rain = 0
KPD3 092310Z 13002KT 10/M05 A3032 RMK A01 T01001045  RH  036%=      5-min Rain = 0
KPD3 092311Z 15001KT 10/M05 A3032 RMK A01 T01001046  RH  035%=      5-min Rain = 0
KPD3 092312Z 15002KT 10/M05 A3032 RMK A01 T01001048  RH  035%=      5-min Rain = 0
KPD3 092313Z 16002KT 10/M05 A3032 RMK A01 T01001049  RH  035%=      5-min Rain = 0
KPD3 092314Z 16003KT 10/M05 A3032 RMK A01 T00991049  RH  035%=      5-min Rain = 0
KPD3 092315Z 15004KT 10/M05 A3032 RMK A01 T00971049  RH  035%=      5-min Rain = 0
KPD3 092316Z 16004KT 10/M05 A3032 RMK A01 T00951049  RH  036%=      5-min Rain = 0
KPD3 092317Z 16005KT 09/M05 A3032 RMK A01 T00911049  RH  037%=      5-min Rain = 0
KPD3 092318Z 17004KT 09/M05 A3032 RMK A01 T00891047  RH  038%=      5-min Rain = 0
KPD3 092319Z 18004KT 09/M05 A3032 RMK A01 T00861047  RH  039%=      5-min Rain = 0
KPD3 092320Z 17004KT 08/M05 A3032 RMK A01 T00841047  RH  039%=      5-min Rain = 0
KPD3 092321Z 17004KT 08/M05 A3032 RMK A01 T00831048  RH  039%=      5-min Rain = 0
KPD3 092322Z 17004KT 08/M05 A3032 RMK A01 T00811047  RH  040%=      5-min Rain = 0
KPD3 092323Z 17004KT 08/M05 A3032 RMK A01 T00801047  RH  040%=      5-min Rain = 0
KPD3 092324Z 18004KT 08/M05 A3032 RMK A01 T00791047  RH  041%=      5-min Rain = 0
KPD3 092325Z 18004KT 08/M05 A3032 RMK A01 T00771047  RH  041%=      5-min Rain = 0
KPD3 092326Z 18003KT 08/M05 A3032 RMK A01 T00761048  RH  041%=      5-min Rain = 0
KPD3 092327Z 17003KT 07/M05 A3032 RMK A01 T00741048  RH  042%=      5-min Rain = 0
KPD3 092328Z 17003KT 07/M05 A3032 RMK A01 T00721048  RH  042%=      5-min Rain = 0
KPD3 092329Z 18003KT 07/M05 A3032 RMK A01 T00701048  RH  043%=      5-min Rain = 0
KPD3 092330Z 17004KT 07/M05 A3032 RMK A01 T00691047  RH  043%=      5-min Rain = 0
KPD3 092331Z 17004KT 07/M05 A3032 RMK A01 T00681048  RH  044%=      5-min Rain = 0
KPD3 092332Z 17004KT 07/M05 A3032 RMK A01 T00671048  RH  044%=      5-min Rain = 0
KPD3 092333Z 17004KT 07/M05 A3032 RMK A01 T00651048  RH  044%=      5-min Rain = 0
KPD3 092334Z 15004KT 06/M05 A3032 RMK A01 T00641048  RH  045%=      5-min Rain = 0
KPD3 092335Z 16004KT 06/M05 A3033 RMK A01 T00621048  RH  045%=      5-min Rain = 0
KPD3 092336Z 16004KT 06/M05 A3033 RMK A01 T00611048  RH  045%=      5-min Rain = 0
KPD3 092337Z 16004KT 06/M05 A3033 RMK A01 T00581049  RH  046%=      5-min Rain = 0
KPD3 092338Z 16005KT 06/M05 A3032 RMK A01 T00571049  RH  047%=      5-min Rain = 0
KPD3 092339Z 16005KT 06/M05 A3032 RMK A01 T00551049  RH  047%=      5-min Rain = 0
KPD3 092340Z 17005KT 05/M05 A3032 RMK A01 T00541048  RH  048%=      5-min Rain = 0
KPD3 092341Z 17005KT 05/M05 A3032 RMK A01 T00531048  RH  048%=      5-min Rain = 0
KPD3 092342Z 17006KT 05/M05 A3032 RMK A01 T00521048  RH  048%=      5-min Rain = 0
KPD3 092343Z 17006KT 05/M05 A3032 RMK A01 T00511049  RH  048%=      5-min Rain = 0
KPD3 092344Z 17006KT 05/M05 A3032 RMK A01 T00511048  RH  049%=      5-min Rain = 0
KPD3 092345Z 17006KT 05/M05 A3032 RMK A01 T00511046  RH  050%=      5-min Rain = 0
KPD3 092346Z 17007KT 05/M05 A3032 RMK A01 T00501045  RH  050%=      5-min Rain = 0
KPD3 092347Z 18007KT 05/M05 A3032 RMK A01 T00501045  RH  050%=      5-min Rain = 0
KPD3 092348Z 18007KT 05/M05 A3032 RMK A01 T00491046  RH  050%=      5-min Rain = 0
KPD3 092349Z 18007KT 05/M05 A3032 RMK A01 T00491046  RH  050%=      5-min Rain = 0
KPD3 092350Z 18007KT 05/M05 A3032 RMK A01 T00481047  RH  050%=      5-min Rain = 0
KPD3 092351Z 18007KT 05/M05 A3032 RMK A01 T00461048  RH  051%=      5-min Rain = 0
KPD3 092352Z 18007KT 04/M05 A3032 RMK A01 T00441049  RH  051%=      5-min Rain = 0
KPD3 092353Z 18006KT 04/M05 A3033 RMK A01 T00411049  RH  052%=      5-min Rain = 0
KPD3 092354Z 18006KT 04/M05 A3033 RMK A01 T00391050  RH  052%=      5-min Rain = 0
KPD3 092355Z 18006KT 04/M05 A3033 RMK A01 T00391049  RH  053%=      5-min Rain = 0
KPD3 092356Z 19006KT 04/M05 A3033 RMK A01 T00381049  RH  053%=      5-min Rain = 0
KPD3 092357Z 19005KT 04/M05 A3033 RMK A01 T00371049  RH  053%=      5-min Rain = 0
KPD3 092358Z 19005KT 04/M05 A3033 RMK A01 T00351050  RH  054%=      5-min Rain = 0
KPD3 092359Z 19005KT 03/M05 A3033 RMK A01 T00331051  RH  054%=      5-min Rain = 0
KPD3 100000Z 19005KT 03/M05 A3033 RMK A01 T00301051  RH  055%=      5-min Rain = 0
KPD3 100001Z 18005KT 03/M05 A3033 RMK A01 T00301050  RH  056%=      5-min Rain = 0
KPD3 100002Z 18004KT 03/M05 A3033 RMK A01 T00281052  RH  055%=      5-min Rain = 0
KPD3 100003Z 18004KT 03/M05 A3033 RMK A01 T00261053  RH  056%=      5-min Rain = 0
KPD3 100004Z 19004KT 03/M05 A3033 RMK A01 T00251051  RH  057%=      5-min Rain = 0
KPD3 100005Z 19004KT 03/M05 A3033 RMK A01 T00251050  RH  058%=      5-min Rain = 0
KPD3 100006Z 19004KT 02/M05 A3034 RMK A01 T00241051  RH  058%=      5-min Rain = 0
KPD3 100007Z 19004KT 02/M05 A3034 RMK A01 T00231051  RH  058%=      5-min Rain = 0
KPD3 100008Z 19004KT 02/M05 A3034 RMK A01 T00231050  RH  058%=      5-min Rain = 0
KPD3 100009Z 20004KT 02/M05 A3034 RMK A01 T00231050  RH  058%=      5-min Rain = 0
KPD3 100010Z 20004KT 02/M05 A3034 RMK A01 T00221051  RH  058%=      5-min Rain = 0
KPD3 100011Z 21004KT 02/M05 A3034 RMK A01 T00201053  RH  059%=      5-min Rain = 0
KPD3 100012Z 20005KT 02/M05 A3034 RMK A01 T00181053  RH  059%=      5-min Rain = 0
KPD3 100013Z 20005KT 02/M05 A3034 RMK A01 T00161052  RH  060%=      5-min Rain = 0
KPD3 100014Z 20005KT 02/M05 A3034 RMK A01 T00161050  RH  061%=      5-min Rain = 0
KPD3 100015Z 20005KT 02/M05 A3034 RMK A01 T00181048  RH  062%=      5-min Rain = 0
KPD3 100016Z 20005KT 02/M05 A3034 RMK A01 T00201048  RH  061%=      5-min Rain = 0
KPD3 100017Z 20005KT 02/M05 A3034 RMK A01 T00201049  RH  060%=      5-min Rain = 0
KPD3 100018Z 20005KT 02/M05 A3034 RMK A01 T00191050  RH  060%=      5-min Rain = 0
KPD3 100019Z 21004KT 02/M05 A3034 RMK A01 T00181051  RH  060%=      5-min Rain = 0
KPD3 100020Z 22004KT 01/M05 A3034 RMK A01 T00141054  RH  061%=      5-min Rain = 0
KPD3 100021Z 23004KT 01/M05 A3034 RMK A01 T00111052  RH  063%=      5-min Rain = 0
KPD3 100022Z 24004KT 01/M05 A3034 RMK A01 T00121050  RH  064%=      5-min Rain = 0
KPD3 100023Z 25004KT 01/M05 A3034 RMK A01 T00121049  RH  064%=      5-min Rain = 0
KPD3 100024Z 24004KT 01/M05 A3034 RMK A01 T00131049  RH  064%=      5-min Rain = 0
KPD3 100025Z 25004KT 01/M05 A3034 RMK A01 T00131049  RH  063%=      5-min Rain = 0
KPD3 100026Z 25004KT 01/M05 A3034 RMK A01 T00141047  RH  064%=      5-min Rain = 0
KPD3 100027Z 25004KT 02/M05 A3034 RMK A01 T00161046  RH  063%=      5-min Rain = 0
KPD3 100028Z 26004KT 02/M05 A3034 RMK A01 T00161047  RH  063%=      5-min Rain = 0
KPD3 100029Z 26004KT 01/M05 A3034 RMK A01 T00141051  RH  062%=      5-min Rain = 0
KPD3 100030Z 26005KT 01/M05 A3034 RMK A01 T00111051  RH  063%=      5-min Rain = 0
KPD3 100031Z 26005KT 01/M05 A3035 RMK A01 T00101051  RH  064%=      5-min Rain = 0
KPD3 100032Z 27005KT 01/M05 A3035 RMK A01 T00081052  RH  064%=      5-min Rain = 0
KPD3 100033Z 27005KT 01/M05 A3035 RMK A01 T00091049  RH  065%=      5-min Rain = 0
KPD3 100034Z 27005KT 01/M05 A3035 RMK A01 T00121047  RH  065%=      5-min Rain = 0
KPD3 100035Z 27005KT 01/M05 A3035 RMK A01 T00121047  RH  065%=      5-min Rain = 0
KPD3 100036Z 26005KT 01/M05 A3035 RMK A01 T00121046  RH  065%=      5-min Rain = 0
KPD3 100037Z 26005KT 01/M05 A3035 RMK A01 T00121046  RH  065%=      5-min Rain = 0
KPD3 100038Z 26005KT 01/M05 A3035 RMK A01 T00111046  RH  065%=      5-min Rain = 0
KPD3 100039Z 26005KT 01/M05 A3035 RMK A01 T00111046  RH  066%=      5-min Rain = 0
KPD3 100040Z 27005KT 01/M05 A3035 RMK A01 T00091047  RH  066%=      5-min Rain = 0
KPD3 100041Z 27005KT 01/M05 A3035 RMK A01 T00071048  RH  066%=      5-min Rain = 0
KPD3 100042Z 27005KT 01/M05 A3035 RMK A01 T00051049  RH  067%=      5-min Rain = 0
KPD3 100043Z 26005KT 00/M05 A3035 RMK A01 T00041049  RH  068%=      5-min Rain = 0
KPD3 100044Z 27005KT 00/M05 A3035 RMK A01 T00021049  RH  068%=      5-min Rain = 0
KPD3 100045Z 27005KT 00/M05 A3035 RMK A01 T00021049  RH  069%=      5-min Rain = 0
KPD3 100046Z 27004KT 00/05 A3035 RMK A01 T00-00-51  RH  069%=      5-min Rain = 0
KPD3 100047Z 27005KT M00/M05 A3035 RMK A01 T10021051  RH  070%=      5-min Rain = 0
KPD3 100048Z 27005KT M00/M05 A3035 RMK A01 T10031050  RH  070%=      5-min Rain = 0
KPD3 100049Z 28005KT M00/M05 A3035 RMK A01 T10021049  RH  070%=      5-min Rain = 0
KPD3 100050Z 28005KT M00/M05 A3035 RMK A01 T10011049  RH  070%=      5-min Rain = 0
KPD3 100051Z 28005KT M00/M05 A3035 RMK A01 T10021051  RH  070%=      5-min Rain = 0
KPD3 100052Z 28005KT M00/M05 A3035 RMK A01 T10031051  RH  070%=      5-min Rain = 0
KPD3 100053Z 28005KT M00/M05 A3035 RMK A01 T10031051  RH  070%=      5-min Rain = 0
KPD3 100054Z 27005KT M00/M05 A3035 RMK A01 T10021049  RH  070%=      5-min Rain = 0
KPD3 100055Z 27005KT M00/M05 A3035 RMK A01 T10031052  RH  070%=      5-min Rain = 0
KPD3 100056Z 27005KT M00/M05 A3035 RMK A01 T10041051  RH  070%=      5-min Rain = 0
KPD3 100057Z 27005KT M00/M05 A3035 RMK A01 T10041050  RH  071%=      5-min Rain = 0
KPD3 100058Z 27005KT M01/M05 A3035 RMK A01 T10061050  RH  072%=      5-min Rain = 0
KPD3 100059Z 27005KT M01/M05 A3035 RMK A01 T10081052  RH  072%=      5-min Rain = 0
KPD3 100100Z 27005KT M01/M05 A3035 RMK A01 T10111054  RH  073%=      5-min Rain = 0
KPD3 100101Z 27005KT M01/M05 A3035 RMK A01 T10131054  RH  074%=      5-min Rain = 0
KPD3 100102Z 28005KT M01/M05 A3035 RMK A01 T10141053  RH  075%=      5-min Rain = 0
KPD3 100103Z 27005KT M02/M05 A3035 RMK A01 T10151052  RH  076%=      5-min Rain = 0
KPD3 100104Z 27005KT M02/M05 A3035 RMK A01 T10151052  RH  076%=      5-min Rain = 0
KPD3 100105Z 27005KT M02/M05 A3035 RMK A01 T10151051  RH  076%=      5-min Rain = 0
KPD3 100106Z 27005KT M02/M05 A3035 RMK A01 T10151051  RH  076%=      5-min Rain = 0
KPD3 100107Z 27005KT M02/M05 A3035 RMK A01 T10151051  RH  076%=      5-min Rain = 0
KPD3 100108Z 27004KT M02/M05 A3035 RMK A01 T10151051  RH  076%=      5-min Rain = 0
KPD3 100109Z 27004KT M01/M05 A3035 RMK A01 T10141050  RH  077%=      5-min Rain = 0
KPD3 100110Z 27004KT M01/M05 A3035 RMK A01 T10131050  RH  076%=      5-min Rain = 0
KPD3 100111Z 27004KT M01/M05 A3035 RMK A01 T10141052  RH  075%=      5-min Rain = 0
KPD3 100112Z 28004KT M01/M05 A3035 RMK A01 T10141052  RH  075%=      5-min Rain = 0
KPD3 100113Z 28004KT M02/M05 A3035 RMK A01 T10161054  RH  075%=      5-min Rain = 0
KPD3 100114Z 27003KT M02/M06 A3035 RMK A01 T10181055  RH  076%=      5-min Rain = 0
KPD3 100115Z 28003KT M02/M06 A3035 RMK A01 T10201055  RH  077%=      5-min Rain = 0
KPD3 100116Z 27003KT M02/M05 A3035 RMK A01 T10201054  RH  077%=      5-min Rain = 0
KPD3 100117Z 27003KT M02/M06 A3035 RMK A01 T10201055  RH  077%=      5-min Rain = 0
KPD3 100118Z 27003KT M02/M06 A3035 RMK A01 T10211056  RH  077%=      5-min Rain = 0
KPD3 100119Z 27003KT M02/M06 A3035 RMK A01 T10211056  RH  077%=      5-min Rain = 0
KPD3 100120Z 27002KT M02/M06 A3035 RMK A01 T10221055  RH  078%=      5-min Rain = 0
KPD3 100121Z 28003KT M02/M06 A3035 RMK A01 T10221055  RH  078%=      5-min Rain = 0
KPD3 100122Z 29004KT M02/M06 A3035 RMK A01 T10231057  RH  078%=      5-min Rain = 0
KPD3 100123Z 30004KT M03/M06 A3035 RMK A01 T10271062  RH  077%=      5-min Rain = 0
KPD3 100124Z 30003KT M03/M07 A3035 RMK A01 T10311065  RH  077%=      5-min Rain = 0
KPD3 100125Z 30003KT M03/M06 A3035 RMK A01 T10311061  RH  080%=      5-min Rain = 0
KPD3 100126Z 30003KT M03/M06 A3035 RMK A01 T10271055  RH  081%=      5-min Rain = 0
KPD3 100127Z 30004KT M02/M05 A3035 RMK A01 T10221052  RH  080%=      5-min Rain = 0
KPD3 100128Z 30004KT M02/M05 A3035 RMK A01 T10191051  RH  078%=      5-min Rain = 0
KPD3 100129Z 30004KT M02/M05 A3035 RMK A01 T10181053  RH  077%=      5-min Rain = 0
KPD3 100130Z 30004KT M02/M06 A3035 RMK A01 T10191055  RH  076%=      5-min Rain = 0
KPD3 100131Z 29004KT M02/M06 A3035 RMK A01 T10211057  RH  077%=      5-min Rain = 0
KPD3 100132Z 29004KT M02/M06 A3035 RMK A01 T10231058  RH  077%=      5-min Rain = 0
KPD3 100133Z 30004KT M03/M06 A3035 RMK A01 T10261059  RH  078%=      5-min Rain = 0
KPD3 100134Z 31003KT M03/M06 A3035 RMK A01 T10281060  RH  078%=      5-min Rain = 0
KPD3 100135Z 32003KT M03/M06 A3035 RMK A01 T10291060  RH  079%=      5-min Rain = 0
KPD3 100136Z 32004KT M03/M06 A3036 RMK A01 T10311061  RH  080%=      5-min Rain = 0
KPD3 100137Z 32004KT M03/M06 A3036 RMK A01 T10311060  RH  080%=      5-min Rain = 0
KPD3 100138Z 31004KT M03/M06 A3036 RMK A01 T10311059  RH  081%=      5-min Rain = 0
KPD3 100139Z 31005KT M03/M06 A3036 RMK A01 T10301058  RH  081%=      5-min Rain = 0
KPD3 100140Z 31007KT M03/M06 A3036 RMK A01 T10301058  RH  081%=      5-min Rain = 0
KPD3 100141Z 31006KT M03/M06 A3036 RMK A01 T10281056  RH  081%=      5-min Rain = 0
KPD3 100142Z 31005KT M03/M05 A3036 RMK A01 T10251053  RH  081%=      5-min Rain = 0
KPD3 100143Z 31005KT M02/M05 A3036 RMK A01 T10181046  RH  081%=      5-min Rain = 0
KPD3 100144Z 31005KT M01/M04 A3036 RMK A01 T10101042  RH  079%=      5-min Rain = 0
KPD3 100145Z 32005KT M01/M04 A3036 RMK A01 T10061043  RH  076%=      5-min Rain = 0
KPD3 100146Z 31006KT M01/M05 A3036 RMK A01 T10051045  RH  074%=      5-min Rain = 0
KPD3 100147Z 31007KT M01/M05 A3036 RMK A01 T10051049  RH  072%=      5-min Rain = 0
KPD3 100148Z 31007KT M01/M05 A3036 RMK A01 T10081051  RH  072%=      5-min Rain = 0
KPD3 100149Z 30007KT M01/M05 A3036 RMK A01 T10111053  RH  073%=      5-min Rain = 0
KPD3 100150Z 30008KT M01/M05 A3036 RMK A01 T10131052  RH  075%=      5-min Rain = 0
KPD3 100151Z 30008KT M01/M05 A3036 RMK A01 T10131049  RH  077%=      5-min Rain = 0
KPD3 100152Z 31009KT M01/M05 A3036 RMK A01 T10101045  RH  077%=      5-min Rain = 0
KPD3 100153Z 31008KT M01/M04 A3036 RMK A01 T10061042  RH  077%=      5-min Rain = 0
KPD3 100154Z 32008KT 00/04 A3036 RMK A01 T00-00-38  RH  075%=      5-min Rain = 0
KPD3 100155Z 32008KT 00/M04 A3036 RMK A01 T00041038  RH  074%=      5-min Rain = 0
KPD3 100156Z 32007KT 01/M04 A3036 RMK A01 T00061038  RH  072%=      5-min Rain = 0
KPD3 100157Z 31006KT 01/M04 A3036 RMK A01 T00061039  RH  072%=      5-min Rain = 0
KPD3 100158Z 32006KT 01/M04 A3036 RMK A01 T00061040  RH  071%=      5-min Rain = 0
KPD3 100159Z 31007KT 01/M04 A3036 RMK A01 T00051041  RH  071%=      5-min Rain = 0
KPD3 100200Z 32007KT 00/M04 A3036 RMK A01 T00031043  RH  071%=      5-min Rain = 0
KPD3 100201Z 32008KT 00/05 A3036 RMK A01 T00000-45  RH  072%=      5-min Rain = 0
KPD3 100202Z 33008KT M00/M05 A3036 RMK A01 T10021045  RH  073%=      5-min Rain = 0
KPD3 100203Z 33009KT 00/04 A3036 RMK A01 T00-00-41  RH  074%=      5-min Rain = 0
KPD3 100204Z 33009KT 00/M04 A3036 RMK A01 T00031038  RH  074%=      5-min Rain = 0
KPD3 100205Z 33009KT 01/M04 A3036 RMK A01 T00051037  RH  073%=      5-min Rain = 0
KPD3 100206Z 33008KT 01/M04 A3036 RMK A01 T00071038  RH  072%=      5-min Rain = 0
KPD3 100207Z 33008KT 01/M04 A3036 RMK A01 T00091038  RH  071%=      5-min Rain = 0
KPD3 100208Z 33008KT 01/M04 A3036 RMK A01 T00091039  RH  071%=      5-min Rain = 0
KPD3 100209Z 33008KT 01/M04 A3036 RMK A01 T00081040  RH  070%=      5-min Rain = 0
KPD3 100210Z 33007KT 01/M04 A3036 RMK A01 T00051042  RH  070%=      5-min Rain = 0
KPD3 100211Z 33008KT 00/M04 A3036 RMK A01 T00031043  RH  071%=      5-min Rain = 0
KPD3 100212Z 32008KT 00/M04 A3036 RMK A01 T00021043  RH  072%=      5-min Rain = 0
KPD3 100213Z 32008KT 00/04 A3036 RMK A01 T00-00-43  RH  073%=      5-min Rain = 0
KPD3 100214Z 32008KT M00/M04 A3036 RMK A01 T10021044  RH  073%=      5-min Rain = 0
KPD3 100215Z 31009KT M00/M05 A3036 RMK A01 T10041045  RH  074%=      5-min Rain = 0
KPD3 100216Z 31009KT M01/M05 A3036 RMK A01 T10051045  RH  074%=      5-min Rain = 0
KPD3 100217Z 31009KT M01/M05 A3036 RMK A01 T10061045  RH  075%=      5-min Rain = 0
KPD3 100218Z 31009KT M01/M05 A3036 RMK A01 T10071045  RH  075%=      5-min Rain = 0
KPD3 100219Z 31008KT M01/M05 A3036 RMK A01 T10071045  RH  076%=      5-min Rain = 0
KPD3 100220Z 31008KT M01/M04 A3036 RMK A01 T10071044  RH  076%=      5-min Rain = 0
KPD3 100221Z 31008KT M01/M04 A3036 RMK A01 T10071044  RH  076%=      5-min Rain = 0
KPD3 100222Z 31008KT M01/M04 A3036 RMK A01 T10061044  RH  075%=      5-min Rain = 0
KPD3 100223Z 30008KT M01/M04 A3036 RMK A01 T10071044  RH  075%=      5-min Rain = 0
KPD3 100224Z 30008KT M01/M05 A3036 RMK A01 T10071045  RH  075%=      5-min Rain = 0
KPD3 100225Z 30007KT M01/M05 A3036 RMK A01 T10061045  RH  075%=      5-min Rain = 0
KPD3 100226Z 30007KT M01/M05 A3036 RMK A01 T10071045  RH  075%=      5-min Rain = 0
KPD3 100227Z 30007KT M01/M05 A3036 RMK A01 T10071045  RH  075%=      5-min Rain = 0
KPD3 100228Z 30006KT M01/M05 A3036 RMK A01 T10081046  RH  075%=      5-min Rain = 0
KPD3 100229Z 30005KT M01/M05 A3036 RMK A01 T10081046  RH  075%=      5-min Rain = 0
KPD3 100230Z 30005KT M01/M05 A3036 RMK A01 T10111050  RH  075%=      5-min Rain = 0
KPD3 100231Z 29004KT M01/M05 A3037 RMK A01 T10141052  RH  075%=      5-min Rain = 0
KPD3 100232Z 28004KT M01/M05 A3037 RMK A01 T10131049  RH  077%=      5-min Rain = 0
KPD3 100233Z 28004KT M01/M05 A3037 RMK A01 T10121048  RH  077%=      5-min Rain = 0
KPD3 100234Z 29003KT M01/M05 A3037 RMK A01 T10111048  RH  076%=      5-min Rain = 0
KPD3 100235Z 29003KT M01/M05 A3037 RMK A01 T10131051  RH  075%=      5-min Rain = 0
KPD3 100236Z 29003KT M01/M05 A3037 RMK A01 T10141050  RH  076%=      5-min Rain = 0
KPD3 100237Z 28003KT M01/M05 A3037 RMK A01 T10131048  RH  077%=      5-min Rain = 0
KPD3 100238Z 28003KT M01/M05 A3037 RMK A01 T10111048  RH  076%=      5-min Rain = 0
KPD3 100239Z 28003KT M01/M05 A3037 RMK A01 T10101049  RH  075%=      5-min Rain = 0
KPD3 100240Z 29003KT M01/M05 A3037 RMK A01 T10101049  RH  075%=      5-min Rain = 0
KPD3 100241Z 28002KT M01/M05 A3037 RMK A01 T10091049  RH  075%=      5-min Rain = 0
KPD3 100242Z 29002KT M01/M05 A3037 RMK A01 T10081048  RH  074%=      5-min Rain = 0
KPD3 100243Z 29001KT M01/M05 A3036 RMK A01 T10071049  RH  073%=      5-min Rain = 0
KPD3 100244Z 28001KT M01/M05 A3036 RMK A01 T10061048  RH  073%=      5-min Rain = 0
KPD3 100245Z 27001KT M01/M05 A3036 RMK A01 T10051047  RH  073%=      5-min Rain = 0
KPD3 100246Z 27000KT M01/M05 A3036 RMK A01 T10071052  RH  072%=      5-min Rain = 0
KPD3 100247Z 27001KT M01/M06 A3036 RMK A01 T10111056  RH  072%=      5-min Rain = 0
KPD3 100248Z 26001KT M02/M06 A3036 RMK A01 T10161059  RH  072%=      5-min Rain = 0
KPD3 100249Z 27001KT M02/M06 A3036 RMK A01 T10221062  RH  074%=      5-min Rain = 0
KPD3 100250Z 29001KT M03/M06 A3036 RMK A01 T10251060  RH  077%=      5-min Rain = 0
KPD3 100251Z 29001KT M03/M06 A3036 RMK A01 T10251055  RH  079%=      5-min Rain = 0
KPD3 100252Z 29000KT M02/M06 A3036 RMK A01 T10241055  RH  079%=      5-min Rain = 0
KPD3 100253Z 00000KT M02/M06 A3036 RMK A01 T10241056  RH  079%=      5-min Rain = 0
KPD3 100254Z 23000KT M03/M06 A3036 RMK A01 T10251055  RH  080%=      5-min Rain = 0
KPD3 100255Z 23001KT M02/M05 A3036 RMK A01 T10231052  RH  081%=      5-min Rain = 0
KPD3 100256Z 24002KT M02/M05 A3036 RMK A01 T10191047  RH  081%=      5-min Rain = 0
KPD3 100257Z 24003KT M01/M04 A3036 RMK A01 T10131044  RH  079%=      5-min Rain = 0
KPD3 100258Z 26003KT M01/M05 A3037 RMK A01 T10101046  RH  077%=      5-min Rain = 0
KPD3 100259Z 27004KT M01/M05 A3037 RMK A01 T10091047  RH  076%=      5-min Rain = 0
KPD3 100300Z 26005KT M01/M05 A3037 RMK A01 T10081048  RH  074%=      5-min Rain = 0
KPD3 100301Z 26006KT M01/M05 A3037 RMK A01 T10101051  RH  073%=      5-min Rain = 0
KPD3 100302Z 26006KT M01/M06 A3037 RMK A01 T10141055  RH  074%=      5-min Rain = 0
KPD3 100303Z 27006KT M02/M06 A3037 RMK A01 T10171056  RH  075%=      5-min Rain = 0
KPD3 100304Z 27006KT M02/M06 A3037 RMK A01 T10201056  RH  076%=      5-min Rain = 0
KPD3 100305Z 27006KT M02/M06 A3037 RMK A01 T10221055  RH  078%=      5-min Rain = 0
KPD3 100306Z 27006KT M02/M05 A3037 RMK A01 T10221054  RH  079%=      5-min Rain = 0
KPD3 100307Z 27007KT M02/M05 A3037 RMK A01 T10221053  RH  080%=      5-min Rain = 0
KPD3 100308Z 27007KT M02/M05 A3037 RMK A01 T10221052  RH  080%=      5-min Rain = 0
KPD3 100309Z 27007KT M02/M05 A3037 RMK A01 T10201050  RH  080%=      5-min Rain = 0
KPD3 100310Z 26007KT M02/M05 A3037 RMK A01 T10201050  RH  080%=      5-min Rain = 0
KPD3 100311Z 26007KT M02/M05 A3037 RMK A01 T10191050  RH  079%=      5-min Rain = 0
KPD3 100312Z 26007KT M02/M05 A3037 RMK A01 T10191052  RH  078%=      5-min Rain = 0
KPD3 100313Z 26007KT M02/M05 A3037 RMK A01 T10201054  RH  078%=      5-min Rain = 0
KPD3 100314Z 26007KT M02/M06 A3037 RMK A01 T10221055  RH  078%=      5-min Rain = 0
KPD3 100315Z 26007KT M02/M06 A3037 RMK A01 T10231055  RH  079%=      5-min Rain = 0
KPD3 100316Z 27006KT M02/M06 A3037 RMK A01 T10231055  RH  079%=      5-min Rain = 0
KPD3 100317Z 27006KT M02/M06 A3037 RMK A01 T10241055  RH  079%=      5-min Rain = 0
KPD3 100318Z 27006KT M02/M06 A3037 RMK A01 T10241055  RH  080%=      5-min Rain = 0
KPD3 100319Z 27006KT M03/M05 A3036 RMK A01 T10251054  RH  080%=      5-min Rain = 0
KPD3 100320Z 28006KT M03/M06 A3036 RMK A01 T10251055  RH  080%=      5-min Rain = 0
KPD3 100321Z 28005KT M03/M05 A3036 RMK A01 T10251054  RH  080%=      5-min Rain = 0
KPD3 100322Z 28005KT M03/M06 A3036 RMK A01 T10251055  RH  080%=      5-min Rain = 0
KPD3 100323Z 28005KT M03/M06 A3036 RMK A01 T10261056  RH  080%=      5-min Rain = 0
KPD3 100324Z 28005KT M03/M06 A3036 RMK A01 T10261056  RH  080%=      5-min Rain = 0
KPD3 100325Z 28005KT M03/M06 A3036 RMK A01 T10271057  RH  080%=      5-min Rain = 0
KPD3 100326Z 28005KT M03/M06 A3036 RMK A01 T10271058  RH  079%=      5-min Rain = 0
KPD3 100327Z 28006KT M03/M06 A3036 RMK A01 T10281059  RH  079%=      5-min Rain = 0
KPD3 100328Z 28005KT M03/M06 A3036 RMK A01 T10291059  RH  080%=      5-min Rain = 0
KPD3 100329Z 28005KT M03/M06 A3036 RMK A01 T10301060  RH  080%=      5-min Rain = 0
KPD3 100330Z 28005KT M03/M06 A3036 RMK A01 T10311060  RH  081%=      5-min Rain = 0
KPD3 100331Z 28005KT M03/M06 A3036 RMK A01 T10321060  RH  081%=      5-min Rain = 0
KPD3 100332Z 28005KT M03/M06 A3036 RMK A01 T10331060  RH  081%=      5-min Rain = 0
KPD3 100333Z 27006KT M03/M06 A3036 RMK A01 T10331060  RH  081%=      5-min Rain = 0
KPD3 100334Z 27006KT M03/M06 A3036 RMK A01 T10331060  RH  081%=      5-min Rain = 0
KPD3 100335Z 26007KT M03/M06 A3036 RMK A01 T10311059  RH  081%=      5-min Rain = 0
KPD3 100336Z 26007KT M03/M06 A3036 RMK A01 T10291058  RH  080%=      5-min Rain = 0
KPD3 100337Z 26010KT M03/M06 A3036 RMK A01 T10251056  RH  079%=      5-min Rain = 0
KPD3 100338Z 26010KT M02/M05 A3036 RMK A01 T10211054  RH  078%=      5-min Rain = 0
KPD3 100339Z 26010KT M02/M05 A3036 RMK A01 T10181053  RH  077%=      5-min Rain = 0
KPD3 100340Z 25010KT M02/M05 A3036 RMK A01 T10161054  RH  075%=      5-min Rain = 0
KPD3 100341Z 26010KT M02/M05 A3036 RMK A01 T10151054  RH  075%=      5-min Rain = 0
KPD3 100342Z 26010KT M02/M05 A3036 RMK A01 T10151054  RH  075%=      5-min Rain = 0
KPD3 100343Z 26010KT M01/M05 A3036 RMK A01 T10141054  RH  075%=      5-min Rain = 0
KPD3 100344Z 26010KT M01/M05 A3036 RMK A01 T10141053  RH  075%=      5-min Rain = 0
KPD3 100345Z 26009KT M01/M05 A3036 RMK A01 T10141054  RH  075%=      5-min Rain = 0
KPD3 100346Z 26009KT M01/M05 A3036 RMK A01 T10141054  RH  075%=      5-min Rain = 0
KPD3 100347Z 26009KT M01/M05 A3036 RMK A01 T10141053  RH  075%=      5-min Rain = 0
KPD3 100348Z 26009KT M01/M05 A3036 RMK A01 T10131053  RH  074%=      5-min Rain = 0
KPD3 100349Z 26009KT M01/M05 A3036 RMK A01 T10121052  RH  074%=      5-min Rain = 0
KPD3 100350Z 26008KT M01/M05 A3036 RMK A01 T10111052  RH  074%=      5-min Rain = 0
KPD3 100351Z 27008KT M01/M05 A3036 RMK A01 T10101052  RH  073%=      5-min Rain = 0
KPD3 100352Z 27008KT M01/M05 A3036 RMK A01 T10101052  RH  073%=      5-min Rain = 0
KPD3 100353Z 26009KT M01/M05 A3036 RMK A01 T10091051  RH  073%=      5-min Rain = 0
KPD3 100354Z 26009KT M01/M05 A3036 RMK A01 T10081049  RH  074%=      5-min Rain = 0
KPD3 100355Z 26009KT M01/M05 A3037 RMK A01 T10081049  RH  073%=      5-min Rain = 0
KPD3 100356Z 27009KT M01/M05 A3037 RMK A01 T10081049  RH  074%=      5-min Rain = 0
KPD3 100357Z 27009KT M01/M05 A3037 RMK A01 T10081048  RH  074%=      5-min Rain = 0
KPD3 100358Z 27009KT M01/M05 A3037 RMK A01 T10081048  RH  074%=      5-min Rain = 0
KPD3 100359Z 27010KT M01/M05 A3037 RMK A01 T10071048  RH  074%=      5-min Rain = 0
KPD3 100400Z 28010KT M01/M05 A3037 RMK A01 T10081049  RH  074%=      5-min Rain = 0
KPD3 100401Z 28010KT M01/M05 A3037 RMK A01 T10091049  RH  074%=      5-min Rain = 0
KPD3 100402Z 28009KT M01/M05 A3037 RMK A01 T10091050  RH  074%=      5-min Rain = 0
KPD3 100403Z 28008KT M01/M05 A3037 RMK A01 T10091050  RH  074%=      5-min Rain = 0
KPD3 100404Z 29007KT M01/M05 A3037 RMK A01 T10111051  RH  074%=      5-min Rain = 0
KPD3 100405Z 29007KT M01/M05 A3037 RMK A01 T10131054  RH  074%=      5-min Rain = 0
KPD3 100406Z 29006KT M02/M06 A3037 RMK A01 T10161056  RH  074%=      5-min Rain = 0
KPD3 100407Z 29006KT M02/M06 A3037 RMK A01 T10181057  RH  075%=      5-min Rain = 0
KPD3 100408Z 29006KT M02/M06 A3037 RMK A01 T10191057  RH  075%=      5-min Rain = 0
KPD3 100409Z 29005KT M02/M06 A3037 RMK A01 T10201057  RH  076%=      5-min Rain = 0
KPD3 100410Z 29005KT M02/M06 A3037 RMK A01 T10201058  RH  075%=      5-min Rain = 0
KPD3 100411Z 29005KT M02/M06 A3037 RMK A01 T10201059  RH  075%=      5-min Rain = 0
KPD3 100412Z 28005KT M02/M06 A3037 RMK A01 T10201059  RH  075%=      5-min Rain = 0
KPD3 100413Z 28004KT M02/M06 A3037 RMK A01 T10181059  RH  073%=      5-min Rain = 0
KPD3 100414Z 27004KT M02/M06 A3037 RMK A01 T10161060  RH  072%=      5-min Rain = 0
KPD3 100415Z 26004KT M02/M06 A3037 RMK A01 T10151058  RH  073%=      5-min Rain = 0
KPD3 100416Z 26004KT M01/M06 A3037 RMK A01 T10141055  RH  073%=      5-min Rain = 0
KPD3 100417Z 26005KT M01/M05 A3037 RMK A01 T10131053  RH  074%=      5-min Rain = 0
KPD3 100418Z 26006KT M02/M06 A3037 RMK A01 T10151056  RH  074%=      5-min Rain = 0
KPD3 100419Z 26007KT M02/M06 A3037 RMK A01 T10181058  RH  074%=      5-min Rain = 0
KPD3 100420Z 26008KT M02/M06 A3037 RMK A01 T10191058  RH  075%=      5-min Rain = 0
KPD3 100421Z 26010KT M02/M06 A3037 RMK A01 T10191056  RH  076%=      5-min Rain = 0
KPD3 100422Z 26010KT M02/M05 A3037 RMK A01 T10181054  RH  076%=      5-min Rain = 0
KPD3 100423Z 26010KT M02/M05 A3037 RMK A01 T10161052  RH  077%=      5-min Rain = 0
KPD3 100424Z 26009KT M02/M05 A3037 RMK A01 T10151051  RH  077%=      5-min Rain = 0
KPD3 100425Z 26009KT M02/M05 A3037 RMK A01 T10151050  RH  077%=      5-min Rain = 0
KPD3 100426Z 27009KT M01/M05 A3037 RMK A01 T10141048  RH  078%=      5-min Rain = 0
KPD3 100427Z 27008KT M01/M05 A3037 RMK A01 T10141048  RH  078%=      5-min Rain = 0
KPD3 100428Z 27008KT M01/M05 A3037 RMK A01 T10141048  RH  078%=      5-min Rain = 0
KPD3 100429Z 28007KT M01/M05 A3037 RMK A01 T10141048  RH  078%=      5-min Rain = 0
KPD3 100430Z 28008KT M02/M05 A3037 RMK A01 T10151049  RH  078%=      5-min Rain = 0
KPD3 100431Z 28007KT M02/M05 A3037 RMK A01 T10171051  RH  078%=      5-min Rain = 0
KPD3 100432Z 29007KT M02/M05 A3037 RMK A01 T10191053  RH  078%=      5-min Rain = 0
KPD3 100433Z 29007KT M02/M06 A3037 RMK A01 T10211055  RH  078%=      5-min Rain = 0
KPD3 100434Z 29007KT M02/M06 A3037 RMK A01 T10231056  RH  078%=      5-min Rain = 0
KPD3 100435Z 29007KT M03/M06 A3037 RMK A01 T10251058  RH  078%=      5-min Rain = 0
KPD3 100436Z 29006KT M03/M06 A3037 RMK A01 T10271059  RH  079%=      5-min Rain = 0
KPD3 100437Z 29006KT M03/M06 A3037 RMK A01 T10291061  RH  079%=      5-min Rain = 0
KPD3 100438Z 29006KT M03/M06 A3037 RMK A01 T10311062  RH  079%=      5-min Rain = 0
KPD3 100439Z 29006KT M03/M06 A3037 RMK A01 T10321063  RH  079%=      5-min Rain = 0
KPD3 100440Z 29006KT M03/M06 A3037 RMK A01 T10341064  RH  079%=      5-min Rain = 0
KPD3 100441Z 29006KT M04/M07 A3037 RMK A01 T10351065  RH  080%=      5-min Rain = 0
KPD3 100442Z 28006KT M04/M06 A3037 RMK A01 T10351064  RH  080%=      5-min Rain = 0
KPD3 100443Z 29006KT M04/M06 A3037 RMK A01 T10351063  RH  081%=      5-min Rain = 0
KPD3 100444Z 28006KT M03/M06 A3037 RMK A01 T10331062  RH  080%=      5-min Rain = 0
KPD3 100445Z 28005KT M03/M06 A3037 RMK A01 T10321062  RH  080%=      5-min Rain = 0
KPD3 100446Z 28005KT M03/M06 A3037 RMK A01 T10321063  RH  079%=      5-min Rain = 0
KPD3 100447Z 28005KT M03/M06 A3037 RMK A01 T10321063  RH  079%=      5-min Rain = 0
KPD3 100448Z 28005KT M03/M07 A3037 RMK A01 T10331065  RH  079%=      5-min Rain = 0
KPD3 100449Z 28005KT M04/M07 A3037 RMK A01 T10351066  RH  079%=      5-min Rain = 0
KPD3 100450Z 28005KT M04/M07 A3037 RMK A01 T10371068  RH  079%=      5-min Rain = 0
KPD3 100451Z 29005KT M04/M07 A3037 RMK A01 T10391069  RH  080%=      5-min Rain = 0
KPD3 100452Z 29005KT M04/M07 A3037 RMK A01 T10411070  RH  080%=      5-min Rain = 0
KPD3 100453Z 29005KT M04/M07 A3037 RMK A01 T10421070  RH  081%=      5-min Rain = 0
KPD3 100454Z 29005KT M04/M07 A3037 RMK A01 T10421070  RH  081%=      5-min Rain = 0
KPD3 100455Z 29005KT M04/M07 A3037 RMK A01 T10431070  RH  081%=      5-min Rain = 0
KPD3 100456Z 29005KT M04/M07 A3037 RMK A01 T10421070  RH  081%=      5-min Rain = 0
KPD3 100457Z 30005KT M04/M07 A3037 RMK A01 T10421070  RH  081%=      5-min Rain = 0
KPD3 100458Z 30005KT M04/M07 A3037 RMK A01 T10421070  RH  081%=      5-min Rain = 0
KPD3 100459Z 30005KT M04/M07 A3037 RMK A01 T10411070  RH  081%=      5-min Rain = 0
KPD3 100500Z 30005KT M04/M07 A3037 RMK A01 T10401069  RH  081%=      5-min Rain = 0
KPD3 100501Z 30005KT M04/M07 A3037 RMK A01 T10401068  RH  081%=      5-min Rain = 0
KPD3 100502Z 30004KT M04/M07 A3037 RMK A01 T10401068  RH  080%=      5-min Rain = 0
KPD3 100503Z 30003KT M04/M07 A3037 RMK A01 T10401069  RH  080%=      5-min Rain = 0
KPD3 100504Z 29003KT M04/M07 A3037 RMK A01 T10411069  RH  081%=      5-min Rain = 0
KPD3 100505Z 29003KT M04/M07 A3037 RMK A01 T10421069  RH  081%=      5-min Rain = 0
KPD3 100506Z 29004KT M04/M07 A3037 RMK A01 T10421069  RH  082%=      5-min Rain = 0
KPD3 100507Z 29004KT M04/M07 A3037 RMK A01 T10411068  RH  082%=      5-min Rain = 0
KPD3 100508Z 29004KT M04/M07 A3037 RMK A01 T10411068  RH  081%=      5-min Rain = 0
KPD3 100509Z 29004KT M04/M07 A3037 RMK A01 T10411070  RH  081%=      5-min Rain = 0
KPD3 100510Z 29004KT M04/M07 A3037 RMK A01 T10421071  RH  080%=      5-min Rain = 0
KPD3 100511Z 29005KT M04/M07 A3037 RMK A01 T10431072  RH  080%=      5-min Rain = 0
KPD3 100512Z 29005KT M04/M07 A3037 RMK A01 T10431072  RH  080%=      5-min Rain = 0
KPD3 100513Z 29005KT M04/M07 A3037 RMK A01 T10431072  RH  080%=      5-min Rain = 0
KPD3 100514Z 29006KT M04/M07 A3037 RMK A01 T10431071  RH  080%=      5-min Rain = 0
KPD3 100515Z 29006KT M04/M07 A3037 RMK A01 T10421071  RH  080%=      5-min Rain = 0
KPD3 100516Z 29006KT M04/M07 A3037 RMK A01 T10421072  RH  080%=      5-min Rain = 0
KPD3 100517Z 29006KT M04/M07 A3037 RMK A01 T10431072  RH  080%=      5-min Rain = 0
KPD3 100518Z 29006KT M04/M07 A3037 RMK A01 T10441072  RH  081%=      5-min Rain = 0
KPD3 100519Z 29007KT M04/M07 A3037 RMK A01 T10431071  RH  081%=      5-min Rain = 0
KPD3 100520Z 29007KT M04/M07 A3037 RMK A01 T10441071  RH  081%=      5-min Rain = 0
KPD3 100521Z 29007KT M04/M07 A3037 RMK A01 T10441072  RH  081%=      5-min Rain = 0
KPD3 100522Z 29007KT M04/M07 A3037 RMK A01 T10441071  RH  081%=      5-min Rain = 0
KPD3 100523Z 29007KT M04/M07 A3037 RMK A01 T10441072  RH  081%=      5-min Rain = 0
KPD3 100524Z 29007KT M04/M07 A3037 RMK A01 T10441073  RH  081%=      5-min Rain = 0
KPD3 100525Z 29007KT M04/M07 A3037 RMK A01 T10441073  RH  080%=      5-min Rain = 0
KPD3 100526Z 29007KT M04/M07 A3037 RMK A01 T10441073  RH  080%=      5-min Rain = 0
KPD3 100527Z 28007KT M04/M07 A3037 RMK A01 T10441073  RH  080%=      5-min Rain = 0
KPD3 100528Z 28007KT M04/M07 A3037 RMK A01 T10441072  RH  081%=      5-min Rain = 0
KPD3 100529Z 27007KT M04/M07 A3037 RMK A01 T10431070  RH  081%=      5-min Rain = 0
KPD3 100530Z 27007KT M04/M07 A3037 RMK A01 T10411069  RH  081%=      5-min Rain = 0
KPD3 100531Z 27007KT M04/M07 A3037 RMK A01 T10401067  RH  082%=      5-min Rain = 0
KPD3 100532Z 27007KT M04/M07 A3037 RMK A01 T10381065  RH  081%=      5-min Rain = 0
KPD3 100533Z 26008KT M04/M06 A3037 RMK A01 T10361064  RH  081%=      5-min Rain = 0
KPD3 100534Z 26009KT M03/M06 A3037 RMK A01 T10331063  RH  080%=      5-min Rain = 0
KPD3 100535Z 26009KT M03/M06 A3037 RMK A01 T10301062  RH  079%=      5-min Rain = 0
KPD3 100536Z 26009KT M03/M06 A3037 RMK A01 T10291062  RH  078%=      5-min Rain = 0
KPD3 100537Z 26009KT M03/M06 A3037 RMK A01 T10271062  RH  077%=      5-min Rain = 0
KPD3 100538Z 26010KT M03/M06 A3037 RMK A01 T10261062  RH  076%=      5-min Rain = 0
KPD3 100539Z 26010KT M03/M06 A3037 RMK A01 T10261063  RH  076%=      5-min Rain = 0
KPD3 100540Z 26009KT M03/M06 A3036 RMK A01 T10261063  RH  076%=      5-min Rain = 0
KPD3 100541Z 26009KT M03/M06 A3036 RMK A01 T10251063  RH  075%=      5-min Rain = 0
KPD3 100542Z 27008KT M02/M06 A3036 RMK A01 T10241063  RH  075%=      5-min Rain = 0
KPD3 100543Z 27008KT M02/M06 A3036 RMK A01 T10241063  RH  075%=      5-min Rain = 0
KPD3 100544Z 27009KT M03/M06 A3036 RMK A01 T10251063  RH  075%=      5-min Rain = 0
KPD3 100545Z 28009KT M03/M06 A3036 RMK A01 T10261064  RH  075%=      5-min Rain = 0
KPD3 100546Z 28009KT M03/M07 A3036 RMK A01 T10271065  RH  075%=      5-min Rain = 0
KPD3 100547Z 28009KT M03/M07 A3036 RMK A01 T10281065  RH  075%=      5-min Rain = 0
KPD3 100548Z 28008KT M03/M07 A3036 RMK A01 T10291066  RH  076%=      5-min Rain = 0
KPD3 100549Z 28009KT M03/M07 A3036 RMK A01 T10291066  RH  076%=      5-min Rain = 0
KPD3 100550Z 28008KT M03/M07 A3036 RMK A01 T10291066  RH  076%=      5-min Rain = 0
KPD3 100551Z 28009KT M03/M07 A3036 RMK A01 T10281065  RH  076%=      5-min Rain = 0
KPD3 100552Z 28008KT M03/M07 A3036 RMK A01 T10261065  RH  075%=      5-min Rain = 0
KPD3 100553Z 28008KT M03/M06 A3036 RMK A01 T10251064  RH  074%=      5-min Rain = 0
KPD3 100554Z 28009KT M02/M06 A3036 RMK A01 T10241064  RH  074%=      5-min Rain = 0
KPD3 100555Z 28009KT M02/M06 A3036 RMK A01 T10221064  RH  073%=      5-min Rain = 0
KPD3 100556Z 28008KT M02/M06 A3036 RMK A01 T10211064  RH  073%=      5-min Rain = 0
KPD3 100557Z 28006KT M02/M07 A3036 RMK A01 T10221065  RH  072%=      5-min Rain = 0
KPD3 100558Z 28007KT M02/M07 A3036 RMK A01 T10241067  RH  072%=      5-min Rain = 0
KPD3 100559Z 28006KT M03/M07 A3036 RMK A01 T10251068  RH  072%=      5-min Rain = 0

Page generated in 0.2084 seconds.